<?xml version="1.0" encoding="UTF-8" standalone="no" ?>
<gpx xmlns="http://www.topografix.com/GPX/1/1" xmlns:xsi="http://www.w3.org/2001/XMLSchema-instance" xsi:schemaLocation="http://www.topografix.com/GPX/1/1 http://www.topografix.com/GPX/1/1/gpx.xsd" version="1.1" creator="VisuGPX - https://www.visugpx.com">
  <metadata>
    <name>Audax_BeaujoireCarquefouErdre25km</name>
    <desc><![CDATA[gnerando]]></desc>
  </metadata>
  <trk>
    <name><![CDATA[2025-02-06 06:38]]></name>
    <desc><![CDATA[<p>Heure de départ: 02/06/2025 06:38<br/>Heure d'arrivée: 02/06/2025 10:49<br/>Distance: 24,4 km (04:10)<br/>Temps déplacement: 04:05<br/>Vitesse moyenne: 5,84 km/h<br/>Vitesse moyenne mouv.: 5,97 km/h<br/>Vitesse Max.: 7,91 km/h<br/>Altitude minimale: 0 m<br/>Altitude maximale: 32 m<br/>Vitesse de montée: 154,3 m/h<br/>Vitesse de descente: -152,8 m/h<br/>Gain d'altitude: 302 m<br/>Perte d'altitude: -302 m<br/>Temps de montée: 01:57<br/>Temps de descente: 01:58<br/></p><hr align="center" width="480" style="height: 2px; width: 517px"/>]]></desc>
    <extensions>
      <line xmlns="http://www.topografix.com/GPX/gpx_style/0/2">
        <color>0000FF</color>
        <width>4</width>
      </line>
    </extensions>
    <trkseg>
      <trkpt lat="47.26844" lon="-1.54555">
        <ele>32</ele>
        <time>2025-02-06T05:38:49Z</time>
      </trkpt>
      <trkpt lat="47.26821" lon="-1.5455">
        <ele>29.27</ele>
        <time>2025-02-06T05:39:01Z</time>
      </trkpt>
      <trkpt lat="47.26804" lon="-1.54535">
        <ele>29.01</ele>
        <time>2025-02-06T05:39:13Z</time>
      </trkpt>
      <trkpt lat="47.26789" lon="-1.54516">
        <ele>29</ele>
        <time>2025-02-06T05:39:25Z</time>
      </trkpt>
      <trkpt lat="47.2677" lon="-1.54505">
        <ele>29</ele>
        <time>2025-02-06T05:39:37Z</time>
      </trkpt>
      <trkpt lat="47.2675" lon="-1.54487">
        <ele>28.09</ele>
        <time>2025-02-06T05:39:53Z</time>
      </trkpt>
      <trkpt lat="47.26728" lon="-1.54468">
        <ele>28</ele>
        <time>2025-02-06T05:40:09Z</time>
      </trkpt>
      <trkpt lat="47.26709" lon="-1.54461">
        <ele>28</ele>
        <time>2025-02-06T05:40:21Z</time>
      </trkpt>
      <trkpt lat="47.26689" lon="-1.54456">
        <ele>28</ele>
        <time>2025-02-06T05:40:33Z</time>
      </trkpt>
      <trkpt lat="47.2667" lon="-1.54455">
        <ele>28</ele>
        <time>2025-02-06T05:40:45Z</time>
      </trkpt>
      <trkpt lat="47.2665" lon="-1.54455">
        <ele>25.08</ele>
        <time>2025-02-06T05:40:57Z</time>
      </trkpt>
      <trkpt lat="47.2663" lon="-1.54459">
        <ele>25</ele>
        <time>2025-02-06T05:41:09Z</time>
      </trkpt>
      <trkpt lat="47.2661" lon="-1.54462">
        <ele>25</ele>
        <time>2025-02-06T05:41:21Z</time>
      </trkpt>
      <trkpt lat="47.26592" lon="-1.54455">
        <ele>25</ele>
        <time>2025-02-06T05:41:33Z</time>
      </trkpt>
      <trkpt lat="47.26582" lon="-1.54423">
        <ele>23.6</ele>
        <time>2025-02-06T05:41:49Z</time>
      </trkpt>
      <trkpt lat="47.26578" lon="-1.54396">
        <ele>22.04</ele>
        <time>2025-02-06T05:42:01Z</time>
      </trkpt>
      <trkpt lat="47.26597" lon="-1.54381">
        <ele>22.97</ele>
        <time>2025-02-06T05:42:17Z</time>
      </trkpt>
      <trkpt lat="47.26619" lon="-1.54375">
        <ele>23</ele>
        <time>2025-02-06T05:42:29Z</time>
      </trkpt>
      <trkpt lat="47.26635" lon="-1.54361">
        <ele>23</ele>
        <time>2025-02-06T05:42:41Z</time>
      </trkpt>
      <trkpt lat="47.2663" lon="-1.54334">
        <ele>23</ele>
        <time>2025-02-06T05:42:53Z</time>
      </trkpt>
      <trkpt lat="47.26626" lon="-1.54304">
        <ele>21.05</ele>
        <time>2025-02-06T05:43:05Z</time>
      </trkpt>
      <trkpt lat="47.26617" lon="-1.54278">
        <ele>21</ele>
        <time>2025-02-06T05:43:17Z</time>
      </trkpt>
      <trkpt lat="47.26606" lon="-1.54252">
        <ele>21</ele>
        <time>2025-02-06T05:43:29Z</time>
      </trkpt>
      <trkpt lat="47.26594" lon="-1.54226">
        <ele>21</ele>
        <time>2025-02-06T05:43:41Z</time>
      </trkpt>
      <trkpt lat="47.26584" lon="-1.54201">
        <ele>21</ele>
        <time>2025-02-06T05:43:53Z</time>
      </trkpt>
      <trkpt lat="47.26573" lon="-1.54176">
        <ele>17.11</ele>
        <time>2025-02-06T05:44:05Z</time>
      </trkpt>
      <trkpt lat="47.26562" lon="-1.54152">
        <ele>16.09</ele>
        <time>2025-02-06T05:44:17Z</time>
      </trkpt>
      <trkpt lat="47.26552" lon="-1.54126">
        <ele>16</ele>
        <time>2025-02-06T05:44:29Z</time>
      </trkpt>
      <trkpt lat="47.26538" lon="-1.54098">
        <ele>16</ele>
        <time>2025-02-06T05:44:41Z</time>
      </trkpt>
      <trkpt lat="47.26527" lon="-1.54072">
        <ele>15.09</ele>
        <time>2025-02-06T05:44:53Z</time>
      </trkpt>
      <trkpt lat="47.26515" lon="-1.5405">
        <ele>15</ele>
        <time>2025-02-06T05:45:05Z</time>
      </trkpt>
      <trkpt lat="47.26503" lon="-1.5402">
        <ele>15</ele>
        <time>2025-02-06T05:45:21Z</time>
      </trkpt>
      <trkpt lat="47.26494" lon="-1.53996">
        <ele>7.65</ele>
        <time>2025-02-06T05:45:33Z</time>
      </trkpt>
      <trkpt lat="47.26474" lon="-1.53991">
        <ele>6.01</ele>
        <time>2025-02-06T05:45:49Z</time>
      </trkpt>
      <trkpt lat="47.26455" lon="-1.54002">
        <ele>8.8</ele>
        <time>2025-02-06T05:46:01Z</time>
      </trkpt>
      <trkpt lat="47.26436" lon="-1.54001">
        <ele>9.97</ele>
        <time>2025-02-06T05:46:13Z</time>
      </trkpt>
      <trkpt lat="47.26417" lon="-1.53995">
        <ele>6.03</ele>
        <time>2025-02-06T05:46:29Z</time>
      </trkpt>
      <trkpt lat="47.26395" lon="-1.53994">
        <ele>6</ele>
        <time>2025-02-06T05:46:45Z</time>
      </trkpt>
      <trkpt lat="47.26378" lon="-1.53989">
        <ele>6</ele>
        <time>2025-02-06T05:46:57Z</time>
      </trkpt>
      <trkpt lat="47.26358" lon="-1.53981">
        <ele>6</ele>
        <time>2025-02-06T05:47:09Z</time>
      </trkpt>
      <trkpt lat="47.26339" lon="-1.53975">
        <ele>6</ele>
        <time>2025-02-06T05:47:21Z</time>
      </trkpt>
      <trkpt lat="47.26322" lon="-1.53965">
        <ele>8.92</ele>
        <time>2025-02-06T05:47:37Z</time>
      </trkpt>
      <trkpt lat="47.26306" lon="-1.53953">
        <ele>9</ele>
        <time>2025-02-06T05:47:49Z</time>
      </trkpt>
      <trkpt lat="47.26288" lon="-1.53936">
        <ele>9</ele>
        <time>2025-02-06T05:48:05Z</time>
      </trkpt>
      <trkpt lat="47.26272" lon="-1.53922">
        <ele>9</ele>
        <time>2025-02-06T05:48:17Z</time>
      </trkpt>
      <trkpt lat="47.26255" lon="-1.53906">
        <ele>6.08</ele>
        <time>2025-02-06T05:48:29Z</time>
      </trkpt>
      <trkpt lat="47.26238" lon="-1.53893">
        <ele>12.81</ele>
        <time>2025-02-06T05:48:41Z</time>
      </trkpt>
      <trkpt lat="47.26222" lon="-1.53877">
        <ele>12.99</ele>
        <time>2025-02-06T05:48:53Z</time>
      </trkpt>
      <trkpt lat="47.26206" lon="-1.53863">
        <ele>13</ele>
        <time>2025-02-06T05:49:05Z</time>
      </trkpt>
      <trkpt lat="47.26189" lon="-1.53852">
        <ele>13</ele>
        <time>2025-02-06T05:49:17Z</time>
      </trkpt>
      <trkpt lat="47.26172" lon="-1.53843">
        <ele>13</ele>
        <time>2025-02-06T05:49:29Z</time>
      </trkpt>
      <trkpt lat="47.26148" lon="-1.53836">
        <ele>19.81</ele>
        <time>2025-02-06T05:49:41Z</time>
      </trkpt>
      <trkpt lat="47.26128" lon="-1.53836">
        <ele>19.99</ele>
        <time>2025-02-06T05:49:53Z</time>
      </trkpt>
      <trkpt lat="47.26107" lon="-1.5384">
        <ele>20</ele>
        <time>2025-02-06T05:50:05Z</time>
      </trkpt>
      <trkpt lat="47.26087" lon="-1.53844">
        <ele>20</ele>
        <time>2025-02-06T05:50:21Z</time>
      </trkpt>
      <trkpt lat="47.26062" lon="-1.53849">
        <ele>14.05</ele>
        <time>2025-02-06T05:50:37Z</time>
      </trkpt>
      <trkpt lat="47.26041" lon="-1.53845">
        <ele>14</ele>
        <time>2025-02-06T05:50:49Z</time>
      </trkpt>
      <trkpt lat="47.26022" lon="-1.53847">
        <ele>14</ele>
        <time>2025-02-06T05:51:01Z</time>
      </trkpt>
      <trkpt lat="47.26004" lon="-1.53847">
        <ele>14</ele>
        <time>2025-02-06T05:51:13Z</time>
      </trkpt>
      <trkpt lat="47.25986" lon="-1.5385">
        <ele>12.05</ele>
        <time>2025-02-06T05:51:25Z</time>
      </trkpt>
      <trkpt lat="47.25969" lon="-1.5386">
        <ele>12</ele>
        <time>2025-02-06T05:51:37Z</time>
      </trkpt>
      <trkpt lat="47.25951" lon="-1.53867">
        <ele>12</ele>
        <time>2025-02-06T05:51:49Z</time>
      </trkpt>
      <trkpt lat="47.25935" lon="-1.53883">
        <ele>12</ele>
        <time>2025-02-06T05:52:01Z</time>
      </trkpt>
      <trkpt lat="47.25916" lon="-1.53894">
        <ele>10.6</ele>
        <time>2025-02-06T05:52:13Z</time>
      </trkpt>
      <trkpt lat="47.25897" lon="-1.53905">
        <ele>10.02</ele>
        <time>2025-02-06T05:52:25Z</time>
      </trkpt>
      <trkpt lat="47.2588" lon="-1.5392">
        <ele>13.5</ele>
        <time>2025-02-06T05:52:37Z</time>
      </trkpt>
      <trkpt lat="47.25863" lon="-1.53934">
        <ele>14.96</ele>
        <time>2025-02-06T05:52:49Z</time>
      </trkpt>
      <trkpt lat="47.25846" lon="-1.53945">
        <ele>15</ele>
        <time>2025-02-06T05:53:01Z</time>
      </trkpt>
      <trkpt lat="47.25827" lon="-1.53951">
        <ele>13.6</ele>
        <time>2025-02-06T05:53:13Z</time>
      </trkpt>
      <trkpt lat="47.25808" lon="-1.53956">
        <ele>13.02</ele>
        <time>2025-02-06T05:53:25Z</time>
      </trkpt>
      <trkpt lat="47.25789" lon="-1.53961">
        <ele>13</ele>
        <time>2025-02-06T05:53:37Z</time>
      </trkpt>
      <trkpt lat="47.2577" lon="-1.53967">
        <ele>13</ele>
        <time>2025-02-06T05:53:49Z</time>
      </trkpt>
      <trkpt lat="47.25752" lon="-1.5396">
        <ele>13</ele>
        <time>2025-02-06T05:54:01Z</time>
      </trkpt>
      <trkpt lat="47.25738" lon="-1.53941">
        <ele>12.03</ele>
        <time>2025-02-06T05:54:13Z</time>
      </trkpt>
      <trkpt lat="47.25726" lon="-1.53919">
        <ele>12</ele>
        <time>2025-02-06T05:54:25Z</time>
      </trkpt>
      <trkpt lat="47.25703" lon="-1.53914">
        <ele>7.04</ele>
        <time>2025-02-06T05:54:41Z</time>
      </trkpt>
      <trkpt lat="47.25685" lon="-1.53925">
        <ele>11.87</ele>
        <time>2025-02-06T05:54:53Z</time>
      </trkpt>
      <trkpt lat="47.25665" lon="-1.53938">
        <ele>12.7</ele>
        <time>2025-02-06T05:55:05Z</time>
      </trkpt>
      <trkpt lat="47.25647" lon="-1.53956">
        <ele>13</ele>
        <time>2025-02-06T05:55:21Z</time>
      </trkpt>
      <trkpt lat="47.25625" lon="-1.53963">
        <ele>13</ele>
        <time>2025-02-06T05:55:37Z</time>
      </trkpt>
      <trkpt lat="47.25611" lon="-1.53981">
        <ele>13</ele>
        <time>2025-02-06T05:55:49Z</time>
      </trkpt>
      <trkpt lat="47.25596" lon="-1.53995">
        <ele>13</ele>
        <time>2025-02-06T05:56:01Z</time>
      </trkpt>
      <trkpt lat="47.25575" lon="-1.54003">
        <ele>18.46</ele>
        <time>2025-02-06T05:56:17Z</time>
      </trkpt>
      <trkpt lat="47.25594" lon="-1.54004">
        <ele>14.13</ele>
        <time>2025-02-06T05:56:49Z</time>
      </trkpt>
      <trkpt lat="47.25617" lon="-1.5401">
        <ele>13.94</ele>
        <time>2025-02-06T05:57:05Z</time>
      </trkpt>
      <trkpt lat="47.25624" lon="-1.5404">
        <ele>14</ele>
        <time>2025-02-06T05:57:21Z</time>
      </trkpt>
      <trkpt lat="47.25613" lon="-1.54018">
        <ele>14</ele>
        <time>2025-02-06T05:57:37Z</time>
      </trkpt>
      <trkpt lat="47.25606" lon="-1.53992">
        <ele>13.09</ele>
        <time>2025-02-06T05:57:49Z</time>
      </trkpt>
      <trkpt lat="47.25599" lon="-1.53966">
        <ele>13</ele>
        <time>2025-02-06T05:58:01Z</time>
      </trkpt>
      <trkpt lat="47.25589" lon="-1.53934">
        <ele>13</ele>
        <time>2025-02-06T05:58:17Z</time>
      </trkpt>
      <trkpt lat="47.25582" lon="-1.53907">
        <ele>8.1</ele>
        <time>2025-02-06T05:58:29Z</time>
      </trkpt>
      <trkpt lat="47.25574" lon="-1.53881">
        <ele>6.06</ele>
        <time>2025-02-06T05:58:41Z</time>
      </trkpt>
      <trkpt lat="47.25566" lon="-1.53855">
        <ele>6</ele>
        <time>2025-02-06T05:58:53Z</time>
      </trkpt>
      <trkpt lat="47.25559" lon="-1.53828">
        <ele>8.1</ele>
        <time>2025-02-06T05:59:05Z</time>
      </trkpt>
      <trkpt lat="47.25552" lon="-1.53804">
        <ele>8.98</ele>
        <time>2025-02-06T05:59:17Z</time>
      </trkpt>
      <trkpt lat="47.25544" lon="-1.53778">
        <ele>9</ele>
        <time>2025-02-06T05:59:29Z</time>
      </trkpt>
      <trkpt lat="47.25536" lon="-1.53751">
        <ele>9</ele>
        <time>2025-02-06T05:59:41Z</time>
      </trkpt>
      <trkpt lat="47.25529" lon="-1.53719">
        <ele>9.99</ele>
        <time>2025-02-06T05:59:57Z</time>
      </trkpt>
      <trkpt lat="47.2552" lon="-1.53692">
        <ele>10</ele>
        <time>2025-02-06T06:00:09Z</time>
      </trkpt>
      <trkpt lat="47.25517" lon="-1.53663">
        <ele>10.7</ele>
        <time>2025-02-06T06:00:21Z</time>
      </trkpt>
      <trkpt lat="47.25518" lon="-1.53632">
        <ele>10.99</ele>
        <time>2025-02-06T06:00:33Z</time>
      </trkpt>
      <trkpt lat="47.25521" lon="-1.53606">
        <ele>11</ele>
        <time>2025-02-06T06:00:45Z</time>
      </trkpt>
      <trkpt lat="47.25519" lon="-1.53573">
        <ele>13.73</ele>
        <time>2025-02-06T06:01:01Z</time>
      </trkpt>
      <trkpt lat="47.25515" lon="-1.53545">
        <ele>13.99</ele>
        <time>2025-02-06T06:01:13Z</time>
      </trkpt>
      <trkpt lat="47.25512" lon="-1.53515">
        <ele>14</ele>
        <time>2025-02-06T06:01:25Z</time>
      </trkpt>
      <trkpt lat="47.25509" lon="-1.53481">
        <ele>17.89</ele>
        <time>2025-02-06T06:01:41Z</time>
      </trkpt>
      <trkpt lat="47.25507" lon="-1.53445">
        <ele>18</ele>
        <time>2025-02-06T06:01:57Z</time>
      </trkpt>
      <trkpt lat="47.25504" lon="-1.53416">
        <ele>18.7</ele>
        <time>2025-02-06T06:02:09Z</time>
      </trkpt>
      <trkpt lat="47.25501" lon="-1.53388">
        <ele>18.99</ele>
        <time>2025-02-06T06:02:21Z</time>
      </trkpt>
      <trkpt lat="47.25499" lon="-1.53361">
        <ele>19</ele>
        <time>2025-02-06T06:02:33Z</time>
      </trkpt>
      <trkpt lat="47.25496" lon="-1.53332">
        <ele>19.7</ele>
        <time>2025-02-06T06:02:45Z</time>
      </trkpt>
      <trkpt lat="47.25493" lon="-1.53305">
        <ele>19.99</ele>
        <time>2025-02-06T06:02:57Z</time>
      </trkpt>
      <trkpt lat="47.2549" lon="-1.5327">
        <ele>20</ele>
        <time>2025-02-06T06:03:13Z</time>
      </trkpt>
      <trkpt lat="47.25486" lon="-1.53244">
        <ele>20</ele>
        <time>2025-02-06T06:03:25Z</time>
      </trkpt>
      <trkpt lat="47.25483" lon="-1.53217">
        <ele>20</ele>
        <time>2025-02-06T06:03:37Z</time>
      </trkpt>
      <trkpt lat="47.25481" lon="-1.53189">
        <ele>20</ele>
        <time>2025-02-06T06:03:49Z</time>
      </trkpt>
      <trkpt lat="47.2548" lon="-1.53158">
        <ele>20.7</ele>
        <time>2025-02-06T06:04:01Z</time>
      </trkpt>
      <trkpt lat="47.25478" lon="-1.53123">
        <ele>21</ele>
        <time>2025-02-06T06:04:17Z</time>
      </trkpt>
      <trkpt lat="47.25478" lon="-1.53096">
        <ele>21</ele>
        <time>2025-02-06T06:04:29Z</time>
      </trkpt>
      <trkpt lat="47.25472" lon="-1.53068">
        <ele>21</ele>
        <time>2025-02-06T06:04:41Z</time>
      </trkpt>
      <trkpt lat="47.2547" lon="-1.53041">
        <ele>21</ele>
        <time>2025-02-06T06:04:53Z</time>
      </trkpt>
      <trkpt lat="47.25473" lon="-1.53012">
        <ele>21</ele>
        <time>2025-02-06T06:05:05Z</time>
      </trkpt>
      <trkpt lat="47.25491" lon="-1.53017">
        <ele>21</ele>
        <time>2025-02-06T06:05:17Z</time>
      </trkpt>
      <trkpt lat="47.25513" lon="-1.53013">
        <ele>23.73</ele>
        <time>2025-02-06T06:05:29Z</time>
      </trkpt>
      <trkpt lat="47.25532" lon="-1.53013">
        <ele>23.99</ele>
        <time>2025-02-06T06:05:41Z</time>
      </trkpt>
      <trkpt lat="47.25557" lon="-1.53009">
        <ele>24</ele>
        <time>2025-02-06T06:05:57Z</time>
      </trkpt>
      <trkpt lat="47.25577" lon="-1.53003">
        <ele>24</ele>
        <time>2025-02-06T06:06:09Z</time>
      </trkpt>
      <trkpt lat="47.25597" lon="-1.53004">
        <ele>25.95</ele>
        <time>2025-02-06T06:06:21Z</time>
      </trkpt>
      <trkpt lat="47.25617" lon="-1.52993">
        <ele>23.27</ele>
        <time>2025-02-06T06:06:37Z</time>
      </trkpt>
      <trkpt lat="47.2564" lon="-1.52994">
        <ele>23</ele>
        <time>2025-02-06T06:06:53Z</time>
      </trkpt>
      <trkpt lat="47.25658" lon="-1.52985">
        <ele>23</ele>
        <time>2025-02-06T06:07:05Z</time>
      </trkpt>
      <trkpt lat="47.25677" lon="-1.52981">
        <ele>21.18</ele>
        <time>2025-02-06T06:07:17Z</time>
      </trkpt>
      <trkpt lat="47.257" lon="-1.52972">
        <ele>21</ele>
        <time>2025-02-06T06:07:33Z</time>
      </trkpt>
      <trkpt lat="47.25718" lon="-1.52966">
        <ele>21</ele>
        <time>2025-02-06T06:07:45Z</time>
      </trkpt>
      <trkpt lat="47.25739" lon="-1.52962">
        <ele>21</ele>
        <time>2025-02-06T06:07:57Z</time>
      </trkpt>
      <trkpt lat="47.25759" lon="-1.52957">
        <ele>21</ele>
        <time>2025-02-06T06:08:09Z</time>
      </trkpt>
      <trkpt lat="47.25777" lon="-1.52953">
        <ele>21</ele>
        <time>2025-02-06T06:08:21Z</time>
      </trkpt>
      <trkpt lat="47.25796" lon="-1.52947">
        <ele>21</ele>
        <time>2025-02-06T06:08:33Z</time>
      </trkpt>
      <trkpt lat="47.25819" lon="-1.5294">
        <ele>21</ele>
        <time>2025-02-06T06:08:49Z</time>
      </trkpt>
      <trkpt lat="47.2584" lon="-1.52935">
        <ele>22.4</ele>
        <time>2025-02-06T06:09:01Z</time>
      </trkpt>
      <trkpt lat="47.25857" lon="-1.52928">
        <ele>22.98</ele>
        <time>2025-02-06T06:09:13Z</time>
      </trkpt>
      <trkpt lat="47.25877" lon="-1.52924">
        <ele>23</ele>
        <time>2025-02-06T06:09:25Z</time>
      </trkpt>
      <trkpt lat="47.25896" lon="-1.52919">
        <ele>23</ele>
        <time>2025-02-06T06:09:37Z</time>
      </trkpt>
      <trkpt lat="47.2592" lon="-1.5291">
        <ele>20.08</ele>
        <time>2025-02-06T06:09:53Z</time>
      </trkpt>
      <trkpt lat="47.25941" lon="-1.52909">
        <ele>20</ele>
        <time>2025-02-06T06:10:05Z</time>
      </trkpt>
      <trkpt lat="47.2596" lon="-1.52904">
        <ele>20</ele>
        <time>2025-02-06T06:10:21Z</time>
      </trkpt>
      <trkpt lat="47.25978" lon="-1.52897">
        <ele>20</ele>
        <time>2025-02-06T06:10:33Z</time>
      </trkpt>
      <trkpt lat="47.25995" lon="-1.52887">
        <ele>20</ele>
        <time>2025-02-06T06:10:45Z</time>
      </trkpt>
      <trkpt lat="47.26014" lon="-1.52878">
        <ele>19.03</ele>
        <time>2025-02-06T06:10:57Z</time>
      </trkpt>
      <trkpt lat="47.26032" lon="-1.52874">
        <ele>19</ele>
        <time>2025-02-06T06:11:09Z</time>
      </trkpt>
      <trkpt lat="47.26048" lon="-1.52857">
        <ele>19</ele>
        <time>2025-02-06T06:11:21Z</time>
      </trkpt>
      <trkpt lat="47.26066" lon="-1.52842">
        <ele>19</ele>
        <time>2025-02-06T06:11:37Z</time>
      </trkpt>
      <trkpt lat="47.26086" lon="-1.52851">
        <ele>14.1</ele>
        <time>2025-02-06T06:11:49Z</time>
      </trkpt>
      <trkpt lat="47.26105" lon="-1.52859">
        <ele>12.06</ele>
        <time>2025-02-06T06:12:01Z</time>
      </trkpt>
      <trkpt lat="47.2613" lon="-1.52856">
        <ele>12</ele>
        <time>2025-02-06T06:12:17Z</time>
      </trkpt>
      <trkpt lat="47.26151" lon="-1.52857">
        <ele>12</ele>
        <time>2025-02-06T06:12:29Z</time>
      </trkpt>
      <trkpt lat="47.26173" lon="-1.52855">
        <ele>11.09</ele>
        <time>2025-02-06T06:12:45Z</time>
      </trkpt>
      <trkpt lat="47.26196" lon="-1.52855">
        <ele>11</ele>
        <time>2025-02-06T06:13:01Z</time>
      </trkpt>
      <trkpt lat="47.26215" lon="-1.52851">
        <ele>11</ele>
        <time>2025-02-06T06:13:13Z</time>
      </trkpt>
      <trkpt lat="47.26238" lon="-1.52844">
        <ele>11</ele>
        <time>2025-02-06T06:13:26Z</time>
      </trkpt>
      <trkpt lat="47.26256" lon="-1.52841">
        <ele>13.8</ele>
        <time>2025-02-06T06:13:38Z</time>
      </trkpt>
      <trkpt lat="47.26274" lon="-1.52856">
        <ele>14.97</ele>
        <time>2025-02-06T06:13:50Z</time>
      </trkpt>
      <trkpt lat="47.2629" lon="-1.52872">
        <ele>15</ele>
        <time>2025-02-06T06:14:02Z</time>
      </trkpt>
      <trkpt lat="47.26297" lon="-1.529">
        <ele>15</ele>
        <time>2025-02-06T06:14:14Z</time>
      </trkpt>
      <trkpt lat="47.26301" lon="-1.52928">
        <ele>15.91</ele>
        <time>2025-02-06T06:14:26Z</time>
      </trkpt>
      <trkpt lat="47.26306" lon="-1.52954">
        <ele>16</ele>
        <time>2025-02-06T06:14:38Z</time>
      </trkpt>
      <trkpt lat="47.26308" lon="-1.52983">
        <ele>16</ele>
        <time>2025-02-06T06:14:50Z</time>
      </trkpt>
      <trkpt lat="47.26312" lon="-1.53014">
        <ele>17.95</ele>
        <time>2025-02-06T06:15:06Z</time>
      </trkpt>
      <trkpt lat="47.26322" lon="-1.53043">
        <ele>18</ele>
        <time>2025-02-06T06:15:22Z</time>
      </trkpt>
      <trkpt lat="47.26327" lon="-1.53079">
        <ele>18</ele>
        <time>2025-02-06T06:15:38Z</time>
      </trkpt>
      <trkpt lat="47.26334" lon="-1.53105">
        <ele>17.73</ele>
        <time>2025-02-06T06:15:50Z</time>
      </trkpt>
      <trkpt lat="47.26351" lon="-1.53129">
        <ele>18</ele>
        <time>2025-02-06T06:16:10Z</time>
      </trkpt>
      <trkpt lat="47.26365" lon="-1.53154">
        <ele>18</ele>
        <time>2025-02-06T06:16:26Z</time>
      </trkpt>
      <trkpt lat="47.26388" lon="-1.53153">
        <ele>18</ele>
        <time>2025-02-06T06:16:42Z</time>
      </trkpt>
      <trkpt lat="47.26408" lon="-1.53155">
        <ele>18</ele>
        <time>2025-02-06T06:16:58Z</time>
      </trkpt>
      <trkpt lat="47.26431" lon="-1.53148">
        <ele>21.89</ele>
        <time>2025-02-06T06:17:42Z</time>
      </trkpt>
      <trkpt lat="47.26449" lon="-1.53144">
        <ele>22</ele>
        <time>2025-02-06T06:17:54Z</time>
      </trkpt>
      <trkpt lat="47.26471" lon="-1.53137">
        <ele>22</ele>
        <time>2025-02-06T06:18:10Z</time>
      </trkpt>
      <trkpt lat="47.26491" lon="-1.53128">
        <ele>22</ele>
        <time>2025-02-06T06:18:22Z</time>
      </trkpt>
      <trkpt lat="47.2651" lon="-1.53126">
        <ele>19.27</ele>
        <time>2025-02-06T06:18:34Z</time>
      </trkpt>
      <trkpt lat="47.2652" lon="-1.53153">
        <ele>19.01</ele>
        <time>2025-02-06T06:18:46Z</time>
      </trkpt>
      <trkpt lat="47.26537" lon="-1.53171">
        <ele>17.05</ele>
        <time>2025-02-06T06:19:02Z</time>
      </trkpt>
      <trkpt lat="47.26556" lon="-1.53178">
        <ele>17</ele>
        <time>2025-02-06T06:19:14Z</time>
      </trkpt>
      <trkpt lat="47.26581" lon="-1.53178">
        <ele>17</ele>
        <time>2025-02-06T06:19:30Z</time>
      </trkpt>
      <trkpt lat="47.266" lon="-1.53163">
        <ele>16.73</ele>
        <time>2025-02-06T06:19:42Z</time>
      </trkpt>
      <trkpt lat="47.26616" lon="-1.53144">
        <ele>16.99</ele>
        <time>2025-02-06T06:19:54Z</time>
      </trkpt>
      <trkpt lat="47.26634" lon="-1.53121">
        <ele>17</ele>
        <time>2025-02-06T06:20:10Z</time>
      </trkpt>
      <trkpt lat="47.26649" lon="-1.53102">
        <ele>17</ele>
        <time>2025-02-06T06:20:22Z</time>
      </trkpt>
      <trkpt lat="47.26659" lon="-1.5308">
        <ele>18.4</ele>
        <time>2025-02-06T06:20:34Z</time>
      </trkpt>
      <trkpt lat="47.26669" lon="-1.53051">
        <ele>18.09</ele>
        <time>2025-02-06T06:20:50Z</time>
      </trkpt>
      <trkpt lat="47.26677" lon="-1.53017">
        <ele>18</ele>
        <time>2025-02-06T06:21:06Z</time>
      </trkpt>
      <trkpt lat="47.26681" lon="-1.52989">
        <ele>19.82</ele>
        <time>2025-02-06T06:21:18Z</time>
      </trkpt>
      <trkpt lat="47.26688" lon="-1.52955">
        <ele>20</ele>
        <time>2025-02-06T06:21:34Z</time>
      </trkpt>
      <trkpt lat="47.26694" lon="-1.52921">
        <ele>20</ele>
        <time>2025-02-06T06:21:50Z</time>
      </trkpt>
      <trkpt lat="47.26696" lon="-1.52893">
        <ele>23.89</ele>
        <time>2025-02-06T06:22:02Z</time>
      </trkpt>
      <trkpt lat="47.26698" lon="-1.52864">
        <ele>24</ele>
        <time>2025-02-06T06:22:14Z</time>
      </trkpt>
      <trkpt lat="47.26704" lon="-1.52838">
        <ele>24</ele>
        <time>2025-02-06T06:22:26Z</time>
      </trkpt>
      <trkpt lat="47.2671" lon="-1.52804">
        <ele>24.99</ele>
        <time>2025-02-06T06:22:42Z</time>
      </trkpt>
      <trkpt lat="47.26715" lon="-1.52769">
        <ele>25</ele>
        <time>2025-02-06T06:22:58Z</time>
      </trkpt>
      <trkpt lat="47.26719" lon="-1.52741">
        <ele>25.91</ele>
        <time>2025-02-06T06:23:10Z</time>
      </trkpt>
      <trkpt lat="47.26725" lon="-1.52715">
        <ele>26</ele>
        <time>2025-02-06T06:23:22Z</time>
      </trkpt>
      <trkpt lat="47.26729" lon="-1.52681">
        <ele>26</ele>
        <time>2025-02-06T06:23:38Z</time>
      </trkpt>
      <trkpt lat="47.26728" lon="-1.52652">
        <ele>24.18</ele>
        <time>2025-02-06T06:23:51Z</time>
      </trkpt>
      <trkpt lat="47.26732" lon="-1.52626">
        <ele>24</ele>
        <time>2025-02-06T06:24:04Z</time>
      </trkpt>
      <trkpt lat="47.26745" lon="-1.52602">
        <ele>24</ele>
        <time>2025-02-06T06:24:17Z</time>
      </trkpt>
      <trkpt lat="47.26756" lon="-1.52582">
        <ele>23.3</ele>
        <time>2025-02-06T06:24:29Z</time>
      </trkpt>
      <trkpt lat="47.26771" lon="-1.52557">
        <ele>23</ele>
        <time>2025-02-06T06:24:45Z</time>
      </trkpt>
      <trkpt lat="47.26785" lon="-1.52541">
        <ele>23</ele>
        <time>2025-02-06T06:24:57Z</time>
      </trkpt>
      <trkpt lat="47.26798" lon="-1.52512">
        <ele>23</ele>
        <time>2025-02-06T06:25:13Z</time>
      </trkpt>
      <trkpt lat="47.26812" lon="-1.52485">
        <ele>23.97</ele>
        <time>2025-02-06T06:25:29Z</time>
      </trkpt>
      <trkpt lat="47.26827" lon="-1.52458">
        <ele>24</ele>
        <time>2025-02-06T06:25:45Z</time>
      </trkpt>
      <trkpt lat="47.26836" lon="-1.52433">
        <ele>24.7</ele>
        <time>2025-02-06T06:25:57Z</time>
      </trkpt>
      <trkpt lat="47.26847" lon="-1.52408">
        <ele>24.99</ele>
        <time>2025-02-06T06:26:09Z</time>
      </trkpt>
      <trkpt lat="47.26825" lon="-1.52409">
        <ele>24.09</ele>
        <time>2025-02-06T06:26:29Z</time>
      </trkpt>
      <trkpt lat="47.26811" lon="-1.52388">
        <ele>24</ele>
        <time>2025-02-06T06:26:41Z</time>
      </trkpt>
      <trkpt lat="47.26802" lon="-1.52357">
        <ele>24</ele>
        <time>2025-02-06T06:26:57Z</time>
      </trkpt>
      <trkpt lat="47.26809" lon="-1.52324">
        <ele>24</ele>
        <time>2025-02-06T06:27:13Z</time>
      </trkpt>
      <trkpt lat="47.26822" lon="-1.52295">
        <ele>24</ele>
        <time>2025-02-06T06:27:29Z</time>
      </trkpt>
      <trkpt lat="47.26832" lon="-1.52273">
        <ele>24</ele>
        <time>2025-02-06T06:27:41Z</time>
      </trkpt>
      <trkpt lat="47.26843" lon="-1.52242">
        <ele>25.9</ele>
        <time>2025-02-06T06:27:57Z</time>
      </trkpt>
      <trkpt lat="47.26854" lon="-1.52219">
        <ele>26</ele>
        <time>2025-02-06T06:28:09Z</time>
      </trkpt>
      <trkpt lat="47.26865" lon="-1.52191">
        <ele>26</ele>
        <time>2025-02-06T06:28:25Z</time>
      </trkpt>
      <trkpt lat="47.26876" lon="-1.52169">
        <ele>26</ele>
        <time>2025-02-06T06:28:37Z</time>
      </trkpt>
      <trkpt lat="47.26892" lon="-1.52178">
        <ele>26</ele>
        <time>2025-02-06T06:28:49Z</time>
      </trkpt>
      <trkpt lat="47.26912" lon="-1.52191">
        <ele>26</ele>
        <time>2025-02-06T06:29:05Z</time>
      </trkpt>
      <trkpt lat="47.26933" lon="-1.52185">
        <ele>26.97</ele>
        <time>2025-02-06T06:29:21Z</time>
      </trkpt>
      <trkpt lat="47.26951" lon="-1.5218">
        <ele>27</ele>
        <time>2025-02-06T06:29:33Z</time>
      </trkpt>
      <trkpt lat="47.2697" lon="-1.52175">
        <ele>27</ele>
        <time>2025-02-06T06:29:45Z</time>
      </trkpt>
      <trkpt lat="47.26993" lon="-1.52166">
        <ele>27</ele>
        <time>2025-02-06T06:30:01Z</time>
      </trkpt>
      <trkpt lat="47.2701" lon="-1.52157">
        <ele>27.91</ele>
        <time>2025-02-06T06:30:13Z</time>
      </trkpt>
      <trkpt lat="47.27028" lon="-1.52148">
        <ele>28</ele>
        <time>2025-02-06T06:30:25Z</time>
      </trkpt>
      <trkpt lat="47.27046" lon="-1.5214">
        <ele>28</ele>
        <time>2025-02-06T06:30:37Z</time>
      </trkpt>
      <trkpt lat="47.27067" lon="-1.52131">
        <ele>28</ele>
        <time>2025-02-06T06:30:49Z</time>
      </trkpt>
      <trkpt lat="47.2709" lon="-1.52126">
        <ele>24.36</ele>
        <time>2025-02-06T06:31:09Z</time>
      </trkpt>
      <trkpt lat="47.27107" lon="-1.52112">
        <ele>24</ele>
        <time>2025-02-06T06:31:25Z</time>
      </trkpt>
      <trkpt lat="47.27127" lon="-1.52094">
        <ele>24</ele>
        <time>2025-02-06T06:31:37Z</time>
      </trkpt>
      <trkpt lat="47.2715" lon="-1.52085">
        <ele>24</ele>
        <time>2025-02-06T06:31:53Z</time>
      </trkpt>
      <trkpt lat="47.2717" lon="-1.5207">
        <ele>26.92</ele>
        <time>2025-02-06T06:32:05Z</time>
      </trkpt>
      <trkpt lat="47.27189" lon="-1.52056">
        <ele>27</ele>
        <time>2025-02-06T06:32:21Z</time>
      </trkpt>
      <trkpt lat="47.27209" lon="-1.52039">
        <ele>27</ele>
        <time>2025-02-06T06:32:33Z</time>
      </trkpt>
      <trkpt lat="47.27233" lon="-1.5203">
        <ele>27</ele>
        <time>2025-02-06T06:32:49Z</time>
      </trkpt>
      <trkpt lat="47.27251" lon="-1.5203">
        <ele>23.5</ele>
        <time>2025-02-06T06:33:01Z</time>
      </trkpt>
      <trkpt lat="47.27268" lon="-1.5201">
        <ele>22.01</ele>
        <time>2025-02-06T06:33:17Z</time>
      </trkpt>
      <trkpt lat="47.27288" lon="-1.51999">
        <ele>23.4</ele>
        <time>2025-02-06T06:33:29Z</time>
      </trkpt>
      <trkpt lat="47.27309" lon="-1.5198">
        <ele>24</ele>
        <time>2025-02-06T06:33:45Z</time>
      </trkpt>
      <trkpt lat="47.27326" lon="-1.51968">
        <ele>24</ele>
        <time>2025-02-06T06:33:57Z</time>
      </trkpt>
      <trkpt lat="47.27342" lon="-1.51953">
        <ele>22.18</ele>
        <time>2025-02-06T06:34:09Z</time>
      </trkpt>
      <trkpt lat="47.27361" lon="-1.51951">
        <ele>22</ele>
        <time>2025-02-06T06:34:21Z</time>
      </trkpt>
      <trkpt lat="47.27381" lon="-1.51936">
        <ele>22</ele>
        <time>2025-02-06T06:34:37Z</time>
      </trkpt>
      <trkpt lat="47.27398" lon="-1.51919">
        <ele>22</ele>
        <time>2025-02-06T06:34:49Z</time>
      </trkpt>
      <trkpt lat="47.27414" lon="-1.51905">
        <ele>21.03</ele>
        <time>2025-02-06T06:35:01Z</time>
      </trkpt>
      <trkpt lat="47.27429" lon="-1.51888">
        <ele>20.03</ele>
        <time>2025-02-06T06:35:13Z</time>
      </trkpt>
      <trkpt lat="47.27445" lon="-1.51873">
        <ele>20</ele>
        <time>2025-02-06T06:35:25Z</time>
      </trkpt>
      <trkpt lat="47.27461" lon="-1.51855">
        <ele>20</ele>
        <time>2025-02-06T06:35:37Z</time>
      </trkpt>
      <trkpt lat="47.27477" lon="-1.5184">
        <ele>20</ele>
        <time>2025-02-06T06:35:49Z</time>
      </trkpt>
      <trkpt lat="47.27485" lon="-1.5181">
        <ele>16.11</ele>
        <time>2025-02-06T06:36:05Z</time>
      </trkpt>
      <trkpt lat="47.27471" lon="-1.51782">
        <ele>16</ele>
        <time>2025-02-06T06:36:21Z</time>
      </trkpt>
      <trkpt lat="47.27462" lon="-1.51759">
        <ele>16</ele>
        <time>2025-02-06T06:36:33Z</time>
      </trkpt>
      <trkpt lat="47.27452" lon="-1.51728">
        <ele>14.05</ele>
        <time>2025-02-06T06:36:49Z</time>
      </trkpt>
      <trkpt lat="47.27449" lon="-1.51698">
        <ele>14</ele>
        <time>2025-02-06T06:37:01Z</time>
      </trkpt>
      <trkpt lat="47.27446" lon="-1.51671">
        <ele>14</ele>
        <time>2025-02-06T06:37:13Z</time>
      </trkpt>
      <trkpt lat="47.27464" lon="-1.51653">
        <ele>14</ele>
        <time>2025-02-06T06:37:29Z</time>
      </trkpt>
      <trkpt lat="47.27483" lon="-1.5165">
        <ele>14</ele>
        <time>2025-02-06T06:37:41Z</time>
      </trkpt>
      <trkpt lat="47.27506" lon="-1.51644">
        <ele>14</ele>
        <time>2025-02-06T06:37:57Z</time>
      </trkpt>
      <trkpt lat="47.27515" lon="-1.51618">
        <ele>14</ele>
        <time>2025-02-06T06:38:13Z</time>
      </trkpt>
      <trkpt lat="47.27513" lon="-1.5159">
        <ele>14</ele>
        <time>2025-02-06T06:38:25Z</time>
      </trkpt>
      <trkpt lat="47.27516" lon="-1.51558">
        <ele>16.98</ele>
        <time>2025-02-06T06:38:41Z</time>
      </trkpt>
      <trkpt lat="47.27521" lon="-1.51532">
        <ele>17</ele>
        <time>2025-02-06T06:38:54Z</time>
      </trkpt>
      <trkpt lat="47.27542" lon="-1.51514">
        <ele>17</ele>
        <time>2025-02-06T06:39:11Z</time>
      </trkpt>
      <trkpt lat="47.27559" lon="-1.51493">
        <ele>19.73</ele>
        <time>2025-02-06T06:39:27Z</time>
      </trkpt>
      <trkpt lat="47.2758" lon="-1.51479">
        <ele>20</ele>
        <time>2025-02-06T06:39:43Z</time>
      </trkpt>
      <trkpt lat="47.27601" lon="-1.51468">
        <ele>20.99</ele>
        <time>2025-02-06T06:39:59Z</time>
      </trkpt>
      <trkpt lat="47.27619" lon="-1.51456">
        <ele>21</ele>
        <time>2025-02-06T06:40:11Z</time>
      </trkpt>
      <trkpt lat="47.27638" lon="-1.51445">
        <ele>21</ele>
        <time>2025-02-06T06:40:27Z</time>
      </trkpt>
      <trkpt lat="47.27641" lon="-1.51413">
        <ele>21.7</ele>
        <time>2025-02-06T06:40:47Z</time>
      </trkpt>
      <trkpt lat="47.27631" lon="-1.51382">
        <ele>22</ele>
        <time>2025-02-06T06:41:03Z</time>
      </trkpt>
      <trkpt lat="47.27622" lon="-1.51358">
        <ele>22</ele>
        <time>2025-02-06T06:41:15Z</time>
      </trkpt>
      <trkpt lat="47.27638" lon="-1.51344">
        <ele>22</ele>
        <time>2025-02-06T06:41:31Z</time>
      </trkpt>
      <trkpt lat="47.27658" lon="-1.51353">
        <ele>22</ele>
        <time>2025-02-06T06:41:43Z</time>
      </trkpt>
      <trkpt lat="47.27676" lon="-1.51366">
        <ele>23.82</ele>
        <time>2025-02-06T06:41:55Z</time>
      </trkpt>
      <trkpt lat="47.27695" lon="-1.51378">
        <ele>24</ele>
        <time>2025-02-06T06:42:07Z</time>
      </trkpt>
      <trkpt lat="47.27717" lon="-1.5139">
        <ele>24</ele>
        <time>2025-02-06T06:42:23Z</time>
      </trkpt>
      <trkpt lat="47.27732" lon="-1.51369">
        <ele>24</ele>
        <time>2025-02-06T06:42:39Z</time>
      </trkpt>
      <trkpt lat="47.27746" lon="-1.5135">
        <ele>24</ele>
        <time>2025-02-06T06:42:51Z</time>
      </trkpt>
      <trkpt lat="47.27764" lon="-1.5135">
        <ele>22.18</ele>
        <time>2025-02-06T06:43:03Z</time>
      </trkpt>
      <trkpt lat="47.27783" lon="-1.5135">
        <ele>22</ele>
        <time>2025-02-06T06:43:15Z</time>
      </trkpt>
      <trkpt lat="47.27761" lon="-1.51357">
        <ele>22</ele>
        <time>2025-02-06T06:43:51Z</time>
      </trkpt>
      <trkpt lat="47.2777" lon="-1.51383">
        <ele>22</ele>
        <time>2025-02-06T06:44:07Z</time>
      </trkpt>
      <trkpt lat="47.27784" lon="-1.51402">
        <ele>22</ele>
        <time>2025-02-06T06:44:19Z</time>
      </trkpt>
      <trkpt lat="47.27803" lon="-1.51418">
        <ele>19.9</ele>
        <time>2025-02-06T06:44:35Z</time>
      </trkpt>
      <trkpt lat="47.27821" lon="-1.51425">
        <ele>19.02</ele>
        <time>2025-02-06T06:44:47Z</time>
      </trkpt>
      <trkpt lat="47.2784" lon="-1.51422">
        <ele>17.18</ele>
        <time>2025-02-06T06:44:59Z</time>
      </trkpt>
      <trkpt lat="47.27861" lon="-1.51417">
        <ele>19.8</ele>
        <time>2025-02-06T06:45:19Z</time>
      </trkpt>
      <trkpt lat="47.27879" lon="-1.51405">
        <ele>20.99</ele>
        <time>2025-02-06T06:45:35Z</time>
      </trkpt>
      <trkpt lat="47.27895" lon="-1.51386">
        <ele>21</ele>
        <time>2025-02-06T06:45:47Z</time>
      </trkpt>
      <trkpt lat="47.27912" lon="-1.51369">
        <ele>21</ele>
        <time>2025-02-06T06:45:59Z</time>
      </trkpt>
      <trkpt lat="47.2793" lon="-1.51348">
        <ele>20.03</ele>
        <time>2025-02-06T06:46:19Z</time>
      </trkpt>
      <trkpt lat="47.27946" lon="-1.51323">
        <ele>22.73</ele>
        <time>2025-02-06T06:46:35Z</time>
      </trkpt>
      <trkpt lat="47.27959" lon="-1.51302">
        <ele>22.99</ele>
        <time>2025-02-06T06:46:47Z</time>
      </trkpt>
      <trkpt lat="47.27976" lon="-1.5128">
        <ele>23</ele>
        <time>2025-02-06T06:47:03Z</time>
      </trkpt>
      <trkpt lat="47.27991" lon="-1.51265">
        <ele>23</ele>
        <time>2025-02-06T06:47:15Z</time>
      </trkpt>
      <trkpt lat="47.28007" lon="-1.51243">
        <ele>23</ele>
        <time>2025-02-06T06:47:31Z</time>
      </trkpt>
      <trkpt lat="47.28022" lon="-1.51224">
        <ele>23</ele>
        <time>2025-02-06T06:47:43Z</time>
      </trkpt>
      <trkpt lat="47.28036" lon="-1.51207">
        <ele>23</ele>
        <time>2025-02-06T06:47:55Z</time>
      </trkpt>
      <trkpt lat="47.2805" lon="-1.51187">
        <ele>23</ele>
        <time>2025-02-06T06:48:11Z</time>
      </trkpt>
      <trkpt lat="47.28049" lon="-1.51157">
        <ele>23</ele>
        <time>2025-02-06T06:48:39Z</time>
      </trkpt>
      <trkpt lat="47.28039" lon="-1.51131">
        <ele>23</ele>
        <time>2025-02-06T06:48:55Z</time>
      </trkpt>
      <trkpt lat="47.28034" lon="-1.51099">
        <ele>23</ele>
        <time>2025-02-06T06:49:11Z</time>
      </trkpt>
      <trkpt lat="47.28027" lon="-1.51066">
        <ele>23.97</ele>
        <time>2025-02-06T06:49:27Z</time>
      </trkpt>
      <trkpt lat="47.28016" lon="-1.51036">
        <ele>24</ele>
        <time>2025-02-06T06:49:43Z</time>
      </trkpt>
      <trkpt lat="47.28009" lon="-1.51004">
        <ele>24</ele>
        <time>2025-02-06T06:49:59Z</time>
      </trkpt>
      <trkpt lat="47.28001" lon="-1.50972">
        <ele>23.01</ele>
        <time>2025-02-06T06:50:15Z</time>
      </trkpt>
      <trkpt lat="47.27991" lon="-1.50945">
        <ele>24.95</ele>
        <time>2025-02-06T06:50:27Z</time>
      </trkpt>
      <trkpt lat="47.27982" lon="-1.50913">
        <ele>25.7</ele>
        <time>2025-02-06T06:50:43Z</time>
      </trkpt>
      <trkpt lat="47.27975" lon="-1.50885">
        <ele>25.99</ele>
        <time>2025-02-06T06:50:56Z</time>
      </trkpt>
      <trkpt lat="47.27963" lon="-1.50855">
        <ele>26</ele>
        <time>2025-02-06T06:51:12Z</time>
      </trkpt>
      <trkpt lat="47.27956" lon="-1.50828">
        <ele>25.3</ele>
        <time>2025-02-06T06:51:24Z</time>
      </trkpt>
      <trkpt lat="47.27948" lon="-1.50796">
        <ele>25</ele>
        <time>2025-02-06T06:51:40Z</time>
      </trkpt>
      <trkpt lat="47.27965" lon="-1.5078">
        <ele>25</ele>
        <time>2025-02-06T06:51:52Z</time>
      </trkpt>
      <trkpt lat="47.2798" lon="-1.50764">
        <ele>25</ele>
        <time>2025-02-06T06:52:04Z</time>
      </trkpt>
      <trkpt lat="47.27998" lon="-1.5075">
        <ele>25</ele>
        <time>2025-02-06T06:52:16Z</time>
      </trkpt>
      <trkpt lat="47.28016" lon="-1.50738">
        <ele>21.11</ele>
        <time>2025-02-06T06:52:28Z</time>
      </trkpt>
      <trkpt lat="47.28035" lon="-1.50726">
        <ele>21</ele>
        <time>2025-02-06T06:52:40Z</time>
      </trkpt>
      <trkpt lat="47.28043" lon="-1.50701">
        <ele>21</ele>
        <time>2025-02-06T06:52:56Z</time>
      </trkpt>
      <trkpt lat="47.28055" lon="-1.50678">
        <ele>21</ele>
        <time>2025-02-06T06:53:12Z</time>
      </trkpt>
      <trkpt lat="47.28072" lon="-1.50668">
        <ele>21</ele>
        <time>2025-02-06T06:53:24Z</time>
      </trkpt>
      <trkpt lat="47.28089" lon="-1.50652">
        <ele>17.38</ele>
        <time>2025-02-06T06:53:36Z</time>
      </trkpt>
      <trkpt lat="47.28105" lon="-1.50641">
        <ele>17.01</ele>
        <time>2025-02-06T06:53:48Z</time>
      </trkpt>
      <trkpt lat="47.28117" lon="-1.50621">
        <ele>17</ele>
        <time>2025-02-06T06:54:00Z</time>
      </trkpt>
      <trkpt lat="47.28131" lon="-1.50605">
        <ele>17</ele>
        <time>2025-02-06T06:54:12Z</time>
      </trkpt>
      <trkpt lat="47.2815" lon="-1.50597">
        <ele>17</ele>
        <time>2025-02-06T06:54:24Z</time>
      </trkpt>
      <trkpt lat="47.28168" lon="-1.50589">
        <ele>19.8</ele>
        <time>2025-02-06T06:54:36Z</time>
      </trkpt>
      <trkpt lat="47.28189" lon="-1.50574">
        <ele>17.1</ele>
        <time>2025-02-06T06:54:52Z</time>
      </trkpt>
      <trkpt lat="47.28207" lon="-1.5057">
        <ele>17</ele>
        <time>2025-02-06T06:55:04Z</time>
      </trkpt>
      <trkpt lat="47.28211" lon="-1.50534">
        <ele>17</ele>
        <time>2025-02-06T06:55:20Z</time>
      </trkpt>
      <trkpt lat="47.28218" lon="-1.50509">
        <ele>17</ele>
        <time>2025-02-06T06:55:32Z</time>
      </trkpt>
      <trkpt lat="47.2823" lon="-1.50481">
        <ele>16.03</ele>
        <time>2025-02-06T06:55:48Z</time>
      </trkpt>
      <trkpt lat="47.28248" lon="-1.50463">
        <ele>16</ele>
        <time>2025-02-06T06:56:04Z</time>
      </trkpt>
      <trkpt lat="47.28269" lon="-1.50449">
        <ele>16.99</ele>
        <time>2025-02-06T06:56:20Z</time>
      </trkpt>
      <trkpt lat="47.28282" lon="-1.50474">
        <ele>17</ele>
        <time>2025-02-06T06:56:32Z</time>
      </trkpt>
      <trkpt lat="47.28289" lon="-1.50501">
        <ele>19.1</ele>
        <time>2025-02-06T06:56:44Z</time>
      </trkpt>
      <trkpt lat="47.28303" lon="-1.50519">
        <ele>19.98</ele>
        <time>2025-02-06T06:56:56Z</time>
      </trkpt>
      <trkpt lat="47.28307" lon="-1.50553">
        <ele>20</ele>
        <time>2025-02-06T06:57:12Z</time>
      </trkpt>
      <trkpt lat="47.28331" lon="-1.5055">
        <ele>20</ele>
        <time>2025-02-06T06:57:28Z</time>
      </trkpt>
      <trkpt lat="47.28351" lon="-1.50559">
        <ele>18.05</ele>
        <time>2025-02-06T06:57:40Z</time>
      </trkpt>
      <trkpt lat="47.28359" lon="-1.50584">
        <ele>18.7</ele>
        <time>2025-02-06T06:57:52Z</time>
      </trkpt>
      <trkpt lat="47.28366" lon="-1.50609">
        <ele>18.99</ele>
        <time>2025-02-06T06:58:04Z</time>
      </trkpt>
      <trkpt lat="47.28373" lon="-1.50642">
        <ele>19</ele>
        <time>2025-02-06T06:58:20Z</time>
      </trkpt>
      <trkpt lat="47.28388" lon="-1.50659">
        <ele>19</ele>
        <time>2025-02-06T06:58:32Z</time>
      </trkpt>
      <trkpt lat="47.28403" lon="-1.50679">
        <ele>18.09</ele>
        <time>2025-02-06T06:58:44Z</time>
      </trkpt>
      <trkpt lat="47.28419" lon="-1.50693">
        <ele>18</ele>
        <time>2025-02-06T06:58:56Z</time>
      </trkpt>
      <trkpt lat="47.28438" lon="-1.50714">
        <ele>18</ele>
        <time>2025-02-06T06:59:12Z</time>
      </trkpt>
      <trkpt lat="47.28455" lon="-1.5073">
        <ele>18</ele>
        <time>2025-02-06T06:59:24Z</time>
      </trkpt>
      <trkpt lat="47.28471" lon="-1.50746">
        <ele>18</ele>
        <time>2025-02-06T06:59:36Z</time>
      </trkpt>
      <trkpt lat="47.28491" lon="-1.50767">
        <ele>18.99</ele>
        <time>2025-02-06T06:59:52Z</time>
      </trkpt>
      <trkpt lat="47.28507" lon="-1.50782">
        <ele>18.09</ele>
        <time>2025-02-06T07:00:04Z</time>
      </trkpt>
      <trkpt lat="47.28523" lon="-1.50799">
        <ele>18</ele>
        <time>2025-02-06T07:00:16Z</time>
      </trkpt>
      <trkpt lat="47.28538" lon="-1.50815">
        <ele>18</ele>
        <time>2025-02-06T07:00:33Z</time>
      </trkpt>
      <trkpt lat="47.28553" lon="-1.50838">
        <ele>15.9</ele>
        <time>2025-02-06T07:00:49Z</time>
      </trkpt>
      <trkpt lat="47.28569" lon="-1.50851">
        <ele>15.08</ele>
        <time>2025-02-06T07:00:57Z</time>
      </trkpt>
      <trkpt lat="47.28588" lon="-1.50863">
        <ele>13.18</ele>
        <time>2025-02-06T07:01:09Z</time>
      </trkpt>
      <trkpt lat="47.28608" lon="-1.50882">
        <ele>13</ele>
        <time>2025-02-06T07:01:25Z</time>
      </trkpt>
      <trkpt lat="47.28669" lon="-1.50878">
        <ele>15</ele>
      </trkpt>
      <trkpt lat="47.28681" lon="-1.50914">
        <ele>15.4</ele>
      </trkpt>
      <trkpt lat="47.2877" lon="-1.50738">
        <ele>13.2</ele>
      </trkpt>
      <trkpt lat="47.28875" lon="-1.50678">
        <ele>14.2</ele>
      </trkpt>
      <trkpt lat="47.29115" lon="-1.50691">
        <ele>10</ele>
        <time>2025-02-06T07:14:57Z</time>
      </trkpt>
      <trkpt lat="47.29129" lon="-1.50668">
        <ele>10</ele>
        <time>2025-02-06T07:15:13Z</time>
      </trkpt>
      <trkpt lat="47.29148" lon="-1.50673">
        <ele>10</ele>
        <time>2025-02-06T07:15:25Z</time>
      </trkpt>
      <trkpt lat="47.29166" lon="-1.50668">
        <ele>10</ele>
        <time>2025-02-06T07:15:37Z</time>
      </trkpt>
      <trkpt lat="47.29188" lon="-1.50662">
        <ele>10.99</ele>
        <time>2025-02-06T07:15:53Z</time>
      </trkpt>
      <trkpt lat="47.29207" lon="-1.5066">
        <ele>11</ele>
        <time>2025-02-06T07:16:05Z</time>
      </trkpt>
      <trkpt lat="47.29226" lon="-1.50658">
        <ele>11</ele>
        <time>2025-02-06T07:16:17Z</time>
      </trkpt>
      <trkpt lat="47.29245" lon="-1.50659">
        <ele>11</ele>
        <time>2025-02-06T07:16:29Z</time>
      </trkpt>
      <trkpt lat="47.29264" lon="-1.50639">
        <ele>9.02</ele>
        <time>2025-02-06T07:16:45Z</time>
      </trkpt>
      <trkpt lat="47.29266" lon="-1.50613">
        <ele>9</ele>
        <time>2025-02-06T07:16:57Z</time>
      </trkpt>
      <trkpt lat="47.29266" lon="-1.50586">
        <ele>9</ele>
        <time>2025-02-06T07:17:09Z</time>
      </trkpt>
      <trkpt lat="47.29265" lon="-1.50552">
        <ele>9.99</ele>
        <time>2025-02-06T07:17:25Z</time>
      </trkpt>
      <trkpt lat="47.29273" lon="-1.5052">
        <ele>10</ele>
        <time>2025-02-06T07:17:41Z</time>
      </trkpt>
      <trkpt lat="47.29284" lon="-1.50492">
        <ele>11.82</ele>
        <time>2025-02-06T07:17:57Z</time>
      </trkpt>
      <trkpt lat="47.29293" lon="-1.50459">
        <ele>12</ele>
        <time>2025-02-06T07:18:13Z</time>
      </trkpt>
      <trkpt lat="47.29303" lon="-1.50427">
        <ele>12</ele>
        <time>2025-02-06T07:18:29Z</time>
      </trkpt>
      <trkpt lat="47.2931" lon="-1.50402">
        <ele>12.91</ele>
        <time>2025-02-06T07:18:41Z</time>
      </trkpt>
      <trkpt lat="47.29315" lon="-1.50375">
        <ele>13</ele>
        <time>2025-02-06T07:18:53Z</time>
      </trkpt>
      <trkpt lat="47.29318" lon="-1.50348">
        <ele>13</ele>
        <time>2025-02-06T07:19:05Z</time>
      </trkpt>
      <trkpt lat="47.29319" lon="-1.50321">
        <ele>12.09</ele>
        <time>2025-02-06T07:19:17Z</time>
      </trkpt>
      <trkpt lat="47.2932" lon="-1.50293">
        <ele>12</ele>
        <time>2025-02-06T07:19:29Z</time>
      </trkpt>
      <trkpt lat="47.29319" lon="-1.50257">
        <ele>12</ele>
        <time>2025-02-06T07:19:45Z</time>
      </trkpt>
      <trkpt lat="47.29316" lon="-1.5023">
        <ele>9.08</ele>
        <time>2025-02-06T07:19:57Z</time>
      </trkpt>
      <trkpt lat="47.29303" lon="-1.50201">
        <ele>9</ele>
        <time>2025-02-06T07:20:13Z</time>
      </trkpt>
      <trkpt lat="47.29287" lon="-1.50186">
        <ele>9</ele>
        <time>2025-02-06T07:20:25Z</time>
      </trkpt>
      <trkpt lat="47.29268" lon="-1.50171">
        <ele>9</ele>
        <time>2025-02-06T07:20:37Z</time>
      </trkpt>
      <trkpt lat="47.29251" lon="-1.50148">
        <ele>6.08</ele>
        <time>2025-02-06T07:20:53Z</time>
      </trkpt>
      <trkpt lat="47.29233" lon="-1.50147">
        <ele>7.95</ele>
        <time>2025-02-06T07:21:05Z</time>
      </trkpt>
      <trkpt lat="47.29213" lon="-1.50146">
        <ele>8</ele>
        <time>2025-02-06T07:21:21Z</time>
      </trkpt>
      <trkpt lat="47.29193" lon="-1.50148">
        <ele>8</ele>
        <time>2025-02-06T07:21:33Z</time>
      </trkpt>
      <trkpt lat="47.2917" lon="-1.50141">
        <ele>8</ele>
        <time>2025-02-06T07:21:49Z</time>
      </trkpt>
      <trkpt lat="47.29166" lon="-1.50114">
        <ele>11.97</ele>
        <time>2025-02-06T07:22:05Z</time>
      </trkpt>
      <trkpt lat="47.2917" lon="-1.50086">
        <ele>8.11</ele>
        <time>2025-02-06T07:22:17Z</time>
      </trkpt>
      <trkpt lat="47.29189" lon="-1.50066">
        <ele>7.01</ele>
        <time>2025-02-06T07:22:33Z</time>
      </trkpt>
      <trkpt lat="47.29211" lon="-1.50059">
        <ele>7</ele>
        <time>2025-02-06T07:22:49Z</time>
      </trkpt>
      <trkpt lat="47.2923" lon="-1.50046">
        <ele>7</ele>
        <time>2025-02-06T07:23:05Z</time>
      </trkpt>
      <trkpt lat="47.29248" lon="-1.50034">
        <ele>7</ele>
        <time>2025-02-06T07:23:17Z</time>
      </trkpt>
      <trkpt lat="47.29269" lon="-1.50025">
        <ele>5.05</ele>
        <time>2025-02-06T07:23:29Z</time>
      </trkpt>
      <trkpt lat="47.29285" lon="-1.50002">
        <ele>5</ele>
        <time>2025-02-06T07:23:45Z</time>
      </trkpt>
      <trkpt lat="47.29303" lon="-1.49987">
        <ele>7.92</ele>
        <time>2025-02-06T07:23:57Z</time>
      </trkpt>
      <trkpt lat="47.29323" lon="-1.49969">
        <ele>8</ele>
        <time>2025-02-06T07:24:13Z</time>
      </trkpt>
      <trkpt lat="47.29343" lon="-1.49958">
        <ele>6.18</ele>
        <time>2025-02-06T07:24:49Z</time>
      </trkpt>
      <trkpt lat="47.29357" lon="-1.4994">
        <ele>6</ele>
        <time>2025-02-06T07:25:01Z</time>
      </trkpt>
      <trkpt lat="47.29369" lon="-1.49915">
        <ele>7.4</ele>
        <time>2025-02-06T07:25:14Z</time>
      </trkpt>
      <trkpt lat="47.29384" lon="-1.49901">
        <ele>7.98</ele>
        <time>2025-02-06T07:25:26Z</time>
      </trkpt>
      <trkpt lat="47.29406" lon="-1.49915">
        <ele>8</ele>
        <time>2025-02-06T07:25:40Z</time>
      </trkpt>
      <trkpt lat="47.29425" lon="-1.49921">
        <ele>4.23</ele>
        <time>2025-02-06T07:25:52Z</time>
      </trkpt>
      <trkpt lat="47.29445" lon="-1.49927">
        <ele>4.01</ele>
        <time>2025-02-06T07:26:04Z</time>
      </trkpt>
      <trkpt lat="47.29464" lon="-1.49948">
        <ele>4</ele>
        <time>2025-02-06T07:26:20Z</time>
      </trkpt>
      <trkpt lat="47.29486" lon="-1.49951">
        <ele>4</ele>
        <time>2025-02-06T07:26:36Z</time>
      </trkpt>
      <trkpt lat="47.29509" lon="-1.49943">
        <ele>2.18</ele>
        <time>2025-02-06T07:26:52Z</time>
      </trkpt>
      <trkpt lat="47.29527" lon="-1.49938">
        <ele>2</ele>
        <time>2025-02-06T07:27:04Z</time>
      </trkpt>
      <trkpt lat="47.29545" lon="-1.49935">
        <ele>2</ele>
        <time>2025-02-06T07:27:16Z</time>
      </trkpt>
      <trkpt lat="47.29569" lon="-1.49931">
        <ele>2</ele>
        <time>2025-02-06T07:27:32Z</time>
      </trkpt>
      <trkpt lat="47.29587" lon="-1.49923">
        <ele>2.7</ele>
        <time>2025-02-06T07:27:44Z</time>
      </trkpt>
      <trkpt lat="47.29605" lon="-1.4992">
        <ele>2.99</ele>
        <time>2025-02-06T07:27:56Z</time>
      </trkpt>
      <trkpt lat="47.29624" lon="-1.49915">
        <ele>5.73</ele>
        <time>2025-02-06T07:28:08Z</time>
      </trkpt>
      <trkpt lat="47.29642" lon="-1.4991">
        <ele>5.99</ele>
        <time>2025-02-06T07:28:20Z</time>
      </trkpt>
      <trkpt lat="47.29663" lon="-1.49913">
        <ele>6</ele>
        <time>2025-02-06T07:28:36Z</time>
      </trkpt>
      <trkpt lat="47.29683" lon="-1.49915">
        <ele>6</ele>
        <time>2025-02-06T07:28:48Z</time>
      </trkpt>
      <trkpt lat="47.29701" lon="-1.49901">
        <ele>6</ele>
        <time>2025-02-06T07:29:00Z</time>
      </trkpt>
      <trkpt lat="47.29716" lon="-1.49885">
        <ele>6</ele>
        <time>2025-02-06T07:29:12Z</time>
      </trkpt>
      <trkpt lat="47.29734" lon="-1.49879">
        <ele>6</ele>
        <time>2025-02-06T07:29:24Z</time>
      </trkpt>
      <trkpt lat="47.29751" lon="-1.4989">
        <ele>9.5</ele>
        <time>2025-02-06T07:29:36Z</time>
      </trkpt>
      <trkpt lat="47.29773" lon="-1.49892">
        <ele>10.99</ele>
        <time>2025-02-06T07:29:52Z</time>
      </trkpt>
      <trkpt lat="47.29809" lon="-1.49882">
        <ele>7.3</ele>
      </trkpt>
      <trkpt lat="47.29841" lon="-1.49783">
        <ele>7.9</ele>
      </trkpt>
      <trkpt lat="47.29873" lon="-1.49783">
        <ele>7</ele>
      </trkpt>
      <trkpt lat="47.29905" lon="-1.49815">
        <ele>9.2</ele>
      </trkpt>
      <trkpt lat="47.29993" lon="-1.49768">
        <ele>7.1</ele>
      </trkpt>
      <trkpt lat="47.29997" lon="-1.4971">
        <ele>5.9</ele>
      </trkpt>
      <trkpt lat="47.3007" lon="-1.4973">
        <ele>7.3</ele>
      </trkpt>
      <trkpt lat="47.30436" lon="-1.49208">
        <ele>6.3</ele>
      </trkpt>
      <trkpt lat="47.30415" lon="-1.49069">
        <ele>7</ele>
      </trkpt>
      <trkpt lat="47.30467" lon="-1.48969">
        <ele>6.3</ele>
      </trkpt>
      <trkpt lat="47.30514" lon="-1.48957">
        <ele>7</ele>
      </trkpt>
      <trkpt lat="47.30614" lon="-1.48863">
        <ele>7.9</ele>
      </trkpt>
      <trkpt lat="47.30624" lon="-1.4891">
        <ele>7.5</ele>
      </trkpt>
      <trkpt lat="47.30626" lon="-1.48965">
        <ele>8.9</ele>
      </trkpt>
      <trkpt lat="47.30582" lon="-1.49056">
        <ele>8</ele>
      </trkpt>
      <trkpt lat="47.30567" lon="-1.49124">
        <ele>8.6</ele>
      </trkpt>
      <trkpt lat="47.30477" lon="-1.49225">
        <ele>7.5</ele>
      </trkpt>
      <trkpt lat="47.30743" lon="-1.49727">
        <ele>15.2</ele>
      </trkpt>
      <trkpt lat="47.30695" lon="-1.4976">
        <ele>16.6</ele>
      </trkpt>
      <trkpt lat="47.30688" lon="-1.49905">
        <ele>18</ele>
      </trkpt>
      <trkpt lat="47.30496" lon="-1.50305">
        <ele>21.2</ele>
        <time>2025-02-06T07:50:16Z</time>
      </trkpt>
      <trkpt lat="47.30496" lon="-1.5035">
        <ele>21.1</ele>
        <time>2025-02-06T07:51:08Z</time>
      </trkpt>
      <trkpt lat="47.30461" lon="-1.50383">
        <ele>17</ele>
        <time>2025-02-06T07:51:20Z</time>
      </trkpt>
      <trkpt lat="47.30468" lon="-1.5041">
        <ele>17</ele>
        <time>2025-02-06T07:51:32Z</time>
      </trkpt>
      <trkpt lat="47.3047" lon="-1.50438">
        <ele>17.97</ele>
        <time>2025-02-06T07:51:44Z</time>
      </trkpt>
      <trkpt lat="47.30472" lon="-1.50466">
        <ele>18</ele>
        <time>2025-02-06T07:51:56Z</time>
      </trkpt>
      <trkpt lat="47.30468" lon="-1.50493">
        <ele>18</ele>
        <time>2025-02-06T07:52:08Z</time>
      </trkpt>
      <trkpt lat="47.30463" lon="-1.50519">
        <ele>18</ele>
        <time>2025-02-06T07:52:20Z</time>
      </trkpt>
      <trkpt lat="47.30455" lon="-1.50554">
        <ele>18</ele>
        <time>2025-02-06T07:52:36Z</time>
      </trkpt>
      <trkpt lat="47.30452" lon="-1.50583">
        <ele>18</ele>
        <time>2025-02-06T07:52:48Z</time>
      </trkpt>
      <trkpt lat="47.30449" lon="-1.50611">
        <ele>17.03</ele>
        <time>2025-02-06T07:53:00Z</time>
      </trkpt>
      <trkpt lat="47.30443" lon="-1.50637">
        <ele>17</ele>
        <time>2025-02-06T07:53:12Z</time>
      </trkpt>
      <trkpt lat="47.30437" lon="-1.50665">
        <ele>17</ele>
        <time>2025-02-06T07:53:24Z</time>
      </trkpt>
      <trkpt lat="47.30433" lon="-1.50694">
        <ele>16.03</ele>
        <time>2025-02-06T07:53:36Z</time>
      </trkpt>
      <trkpt lat="47.30432" lon="-1.5073">
        <ele>16</ele>
        <time>2025-02-06T07:53:52Z</time>
      </trkpt>
      <trkpt lat="47.30432" lon="-1.50756">
        <ele>14.6</ele>
        <time>2025-02-06T07:54:04Z</time>
      </trkpt>
      <trkpt lat="47.3043" lon="-1.50784">
        <ele>14.02</ele>
        <time>2025-02-06T07:54:16Z</time>
      </trkpt>
      <trkpt lat="47.30428" lon="-1.50812">
        <ele>14</ele>
        <time>2025-02-06T07:54:28Z</time>
      </trkpt>
      <trkpt lat="47.30421" lon="-1.50844">
        <ele>14</ele>
        <time>2025-02-06T07:54:44Z</time>
      </trkpt>
      <trkpt lat="47.30413" lon="-1.50877">
        <ele>18.55</ele>
        <time>2025-02-06T07:55:00Z</time>
      </trkpt>
      <trkpt lat="47.30405" lon="-1.50902">
        <ele>18.99</ele>
        <time>2025-02-06T07:55:12Z</time>
      </trkpt>
      <trkpt lat="47.30398" lon="-1.50929">
        <ele>17.18</ele>
        <time>2025-02-06T07:55:24Z</time>
      </trkpt>
      <trkpt lat="47.30391" lon="-1.50955">
        <ele>17</ele>
        <time>2025-02-06T07:55:36Z</time>
      </trkpt>
      <trkpt lat="47.30383" lon="-1.50982">
        <ele>17</ele>
        <time>2025-02-06T07:55:48Z</time>
      </trkpt>
      <trkpt lat="47.30374" lon="-1.51009">
        <ele>14.27</ele>
        <time>2025-02-06T07:56:00Z</time>
      </trkpt>
      <trkpt lat="47.30366" lon="-1.51035">
        <ele>14.01</ele>
        <time>2025-02-06T07:56:12Z</time>
      </trkpt>
      <trkpt lat="47.30358" lon="-1.51061">
        <ele>14</ele>
        <time>2025-02-06T07:56:24Z</time>
      </trkpt>
      <trkpt lat="47.30349" lon="-1.51093">
        <ele>13.09</ele>
        <time>2025-02-06T07:56:40Z</time>
      </trkpt>
      <trkpt lat="47.30341" lon="-1.51119">
        <ele>13</ele>
        <time>2025-02-06T07:56:52Z</time>
      </trkpt>
      <trkpt lat="47.30334" lon="-1.51143">
        <ele>13</ele>
        <time>2025-02-06T07:57:04Z</time>
      </trkpt>
      <trkpt lat="47.30324" lon="-1.5117">
        <ele>15.92</ele>
        <time>2025-02-06T07:57:16Z</time>
      </trkpt>
      <trkpt lat="47.30307" lon="-1.5119">
        <ele>16</ele>
        <time>2025-02-06T07:57:32Z</time>
      </trkpt>
      <trkpt lat="47.30284" lon="-1.51194">
        <ele>16</ele>
        <time>2025-02-06T07:57:48Z</time>
      </trkpt>
      <trkpt lat="47.30262" lon="-1.51195">
        <ele>16</ele>
        <time>2025-02-06T07:58:04Z</time>
      </trkpt>
      <trkpt lat="47.30242" lon="-1.51199">
        <ele>16.91</ele>
        <time>2025-02-06T07:58:16Z</time>
      </trkpt>
      <trkpt lat="47.30219" lon="-1.51202">
        <ele>17</ele>
        <time>2025-02-06T07:58:32Z</time>
      </trkpt>
      <trkpt lat="47.30198" lon="-1.51204">
        <ele>17</ele>
        <time>2025-02-06T07:58:44Z</time>
      </trkpt>
      <trkpt lat="47.30177" lon="-1.51204">
        <ele>17</ele>
        <time>2025-02-06T07:59:00Z</time>
      </trkpt>
      <trkpt lat="47.30155" lon="-1.51208">
        <ele>18.82</ele>
        <time>2025-02-06T07:59:16Z</time>
      </trkpt>
      <trkpt lat="47.30134" lon="-1.5121">
        <ele>19</ele>
        <time>2025-02-06T07:59:32Z</time>
      </trkpt>
      <trkpt lat="47.30111" lon="-1.51216">
        <ele>19</ele>
        <time>2025-02-06T07:59:48Z</time>
      </trkpt>
      <trkpt lat="47.30089" lon="-1.51216">
        <ele>19</ele>
        <time>2025-02-06T08:00:00Z</time>
      </trkpt>
      <trkpt lat="47.30074" lon="-1.51234">
        <ele>19.97</ele>
        <time>2025-02-06T08:00:16Z</time>
      </trkpt>
      <trkpt lat="47.30075" lon="-1.51262">
        <ele>20.91</ele>
        <time>2025-02-06T08:00:28Z</time>
      </trkpt>
      <trkpt lat="47.30078" lon="-1.51289">
        <ele>21</ele>
        <time>2025-02-06T08:00:40Z</time>
      </trkpt>
      <trkpt lat="47.30079" lon="-1.51316">
        <ele>21</ele>
        <time>2025-02-06T08:00:52Z</time>
      </trkpt>
      <trkpt lat="47.30082" lon="-1.51344">
        <ele>20.09</ele>
        <time>2025-02-06T08:01:04Z</time>
      </trkpt>
      <trkpt lat="47.30088" lon="-1.51371">
        <ele>18.06</ele>
        <time>2025-02-06T08:01:16Z</time>
      </trkpt>
      <trkpt lat="47.30089" lon="-1.51397">
        <ele>18</ele>
        <time>2025-02-06T08:01:28Z</time>
      </trkpt>
      <trkpt lat="47.30076" lon="-1.51424">
        <ele>20.73</ele>
        <time>2025-02-06T08:01:44Z</time>
      </trkpt>
      <trkpt lat="47.30058" lon="-1.51427">
        <ele>20.99</ele>
        <time>2025-02-06T08:01:56Z</time>
      </trkpt>
      <trkpt lat="47.30039" lon="-1.51429">
        <ele>21</ele>
        <time>2025-02-06T08:02:08Z</time>
      </trkpt>
      <trkpt lat="47.30021" lon="-1.51431">
        <ele>21</ele>
        <time>2025-02-06T08:02:20Z</time>
      </trkpt>
      <trkpt lat="47.30002" lon="-1.51433">
        <ele>21</ele>
        <time>2025-02-06T08:02:32Z</time>
      </trkpt>
      <trkpt lat="47.30015" lon="-1.51455">
        <ele>21.02</ele>
        <time>2025-02-06T08:03:12Z</time>
      </trkpt>
      <trkpt lat="47.30021" lon="-1.51481">
        <ele>21</ele>
        <time>2025-02-06T08:03:24Z</time>
      </trkpt>
      <trkpt lat="47.30027" lon="-1.51508">
        <ele>19.6</ele>
        <time>2025-02-06T08:03:36Z</time>
      </trkpt>
      <trkpt lat="47.30028" lon="-1.51542">
        <ele>19</ele>
        <time>2025-02-06T08:03:52Z</time>
      </trkpt>
      <trkpt lat="47.30034" lon="-1.51569">
        <ele>19</ele>
        <time>2025-02-06T08:04:04Z</time>
      </trkpt>
      <trkpt lat="47.3004" lon="-1.51597">
        <ele>18.09</ele>
        <time>2025-02-06T08:04:16Z</time>
      </trkpt>
      <trkpt lat="47.30046" lon="-1.51623">
        <ele>18</ele>
        <time>2025-02-06T08:04:28Z</time>
      </trkpt>
      <trkpt lat="47.30051" lon="-1.51654">
        <ele>18</ele>
        <time>2025-02-06T08:04:44Z</time>
      </trkpt>
      <trkpt lat="47.30057" lon="-1.51688">
        <ele>17.03</ele>
        <time>2025-02-06T08:05:00Z</time>
      </trkpt>
      <trkpt lat="47.30064" lon="-1.51722">
        <ele>17</ele>
        <time>2025-02-06T08:05:16Z</time>
      </trkpt>
      <trkpt lat="47.30072" lon="-1.51746">
        <ele>17</ele>
        <time>2025-02-06T08:05:28Z</time>
      </trkpt>
      <trkpt lat="47.3008" lon="-1.51771">
        <ele>13.11</ele>
        <time>2025-02-06T08:05:40Z</time>
      </trkpt>
      <trkpt lat="47.30087" lon="-1.51803">
        <ele>15.73</ele>
        <time>2025-02-06T08:05:56Z</time>
      </trkpt>
      <trkpt lat="47.30094" lon="-1.51834">
        <ele>14.59</ele>
        <time>2025-02-06T08:06:08Z</time>
      </trkpt>
      <trkpt lat="47.301" lon="-1.51859">
        <ele>14.02</ele>
        <time>2025-02-06T08:06:20Z</time>
      </trkpt>
      <trkpt lat="47.30109" lon="-1.51885">
        <ele>14</ele>
        <time>2025-02-06T08:06:32Z</time>
      </trkpt>
      <trkpt lat="47.30116" lon="-1.51911">
        <ele>14</ele>
        <time>2025-02-06T08:06:44Z</time>
      </trkpt>
      <trkpt lat="47.30124" lon="-1.51942">
        <ele>12.02</ele>
        <time>2025-02-06T08:07:00Z</time>
      </trkpt>
      <trkpt lat="47.30132" lon="-1.51974">
        <ele>12</ele>
        <time>2025-02-06T08:07:16Z</time>
      </trkpt>
      <trkpt lat="47.30138" lon="-1.52002">
        <ele>9.9</ele>
        <time>2025-02-06T08:07:32Z</time>
      </trkpt>
      <trkpt lat="47.30141" lon="-1.52029">
        <ele>9.02</ele>
        <time>2025-02-06T08:07:44Z</time>
      </trkpt>
      <trkpt lat="47.30148" lon="-1.52053">
        <ele>9</ele>
        <time>2025-02-06T08:07:56Z</time>
      </trkpt>
      <trkpt lat="47.30153" lon="-1.52085">
        <ele>8.3</ele>
        <time>2025-02-06T08:08:12Z</time>
      </trkpt>
      <trkpt lat="47.30161" lon="-1.52111">
        <ele>8.01</ele>
        <time>2025-02-06T08:08:24Z</time>
      </trkpt>
      <trkpt lat="47.30166" lon="-1.52137">
        <ele>8</ele>
        <time>2025-02-06T08:08:36Z</time>
      </trkpt>
      <trkpt lat="47.30174" lon="-1.52164">
        <ele>10.92</ele>
        <time>2025-02-06T08:08:48Z</time>
      </trkpt>
      <trkpt lat="47.3018" lon="-1.52197">
        <ele>9.02</ele>
        <time>2025-02-06T08:09:04Z</time>
      </trkpt>
      <trkpt lat="47.30189" lon="-1.52226">
        <ele>9</ele>
        <time>2025-02-06T08:09:16Z</time>
      </trkpt>
      <trkpt lat="47.30196" lon="-1.52256">
        <ele>7.6</ele>
        <time>2025-02-06T08:09:28Z</time>
      </trkpt>
      <trkpt lat="47.30203" lon="-1.52284">
        <ele>7.02</ele>
        <time>2025-02-06T08:09:40Z</time>
      </trkpt>
      <trkpt lat="47.30219" lon="-1.523">
        <ele>7</ele>
        <time>2025-02-06T08:09:52Z</time>
      </trkpt>
      <trkpt lat="47.30235" lon="-1.52313">
        <ele>7</ele>
        <time>2025-02-06T08:10:04Z</time>
      </trkpt>
      <trkpt lat="47.30248" lon="-1.52331">
        <ele>7</ele>
        <time>2025-02-06T08:10:16Z</time>
      </trkpt>
      <trkpt lat="47.30238" lon="-1.52356">
        <ele>5.05</ele>
        <time>2025-02-06T08:10:28Z</time>
      </trkpt>
      <trkpt lat="47.3022" lon="-1.52369">
        <ele>5</ele>
        <time>2025-02-06T08:10:40Z</time>
      </trkpt>
      <trkpt lat="47.30206" lon="-1.52389">
        <ele>5</ele>
        <time>2025-02-06T08:10:52Z</time>
      </trkpt>
      <trkpt lat="47.30214" lon="-1.52422">
        <ele>4.3</ele>
        <time>2025-02-06T08:11:08Z</time>
      </trkpt>
      <trkpt lat="47.30222" lon="-1.52446">
        <ele>4.01</ele>
        <time>2025-02-06T08:11:20Z</time>
      </trkpt>
      <trkpt lat="47.3023" lon="-1.52472">
        <ele>4</ele>
        <time>2025-02-06T08:11:32Z</time>
      </trkpt>
      <trkpt lat="47.30233" lon="-1.52498">
        <ele>4</ele>
        <time>2025-02-06T08:11:44Z</time>
      </trkpt>
      <trkpt lat="47.3023" lon="-1.52524">
        <ele>4</ele>
        <time>2025-02-06T08:11:56Z</time>
      </trkpt>
      <trkpt lat="47.30223" lon="-1.52551">
        <ele>4</ele>
        <time>2025-02-06T08:12:08Z</time>
      </trkpt>
      <trkpt lat="47.30203" lon="-1.52563">
        <ele>4</ele>
        <time>2025-02-06T08:12:24Z</time>
      </trkpt>
      <trkpt lat="47.30184" lon="-1.52562">
        <ele>4</ele>
        <time>2025-02-06T08:12:36Z</time>
      </trkpt>
      <trkpt lat="47.30168" lon="-1.52547">
        <ele>4</ele>
        <time>2025-02-06T08:12:48Z</time>
      </trkpt>
      <trkpt lat="47.30149" lon="-1.52545">
        <ele>7.97</ele>
        <time>2025-02-06T08:13:04Z</time>
      </trkpt>
      <trkpt lat="47.30126" lon="-1.52543">
        <ele>8</ele>
        <time>2025-02-06T08:13:20Z</time>
      </trkpt>
      <trkpt lat="47.30105" lon="-1.52541">
        <ele>8</ele>
        <time>2025-02-06T08:13:36Z</time>
      </trkpt>
      <trkpt lat="47.30086" lon="-1.52556">
        <ele>8</ele>
        <time>2025-02-06T08:13:52Z</time>
      </trkpt>
      <trkpt lat="47.30075" lon="-1.52579">
        <ele>10.92</ele>
        <time>2025-02-06T08:14:04Z</time>
      </trkpt>
      <trkpt lat="47.30067" lon="-1.52604">
        <ele>11.99</ele>
        <time>2025-02-06T08:14:20Z</time>
      </trkpt>
      <trkpt lat="47.30057" lon="-1.52627">
        <ele>12</ele>
        <time>2025-02-06T08:14:32Z</time>
      </trkpt>
      <trkpt lat="47.30057" lon="-1.52655">
        <ele>12</ele>
        <time>2025-02-06T08:14:48Z</time>
      </trkpt>
      <trkpt lat="47.30067" lon="-1.52681">
        <ele>10.18</ele>
        <time>2025-02-06T08:15:00Z</time>
      </trkpt>
      <trkpt lat="47.30073" lon="-1.52714">
        <ele>10</ele>
        <time>2025-02-06T08:15:16Z</time>
      </trkpt>
      <trkpt lat="47.30093" lon="-1.52728">
        <ele>4.54</ele>
        <time>2025-02-06T08:15:32Z</time>
      </trkpt>
      <trkpt lat="47.30111" lon="-1.52751">
        <ele>3.3</ele>
        <time>2025-02-06T08:15:48Z</time>
      </trkpt>
      <trkpt lat="47.30112" lon="-1.52782">
        <ele>3</ele>
        <time>2025-02-06T08:16:08Z</time>
      </trkpt>
      <trkpt lat="47.30101" lon="-1.5281">
        <ele>3</ele>
        <time>2025-02-06T08:16:24Z</time>
      </trkpt>
      <trkpt lat="47.30088" lon="-1.52834">
        <ele>3</ele>
        <time>2025-02-06T08:16:36Z</time>
      </trkpt>
      <trkpt lat="47.30074" lon="-1.52856">
        <ele>3</ele>
        <time>2025-02-06T08:16:48Z</time>
      </trkpt>
      <trkpt lat="47.30056" lon="-1.52873">
        <ele>3</ele>
        <time>2025-02-06T08:17:00Z</time>
      </trkpt>
      <trkpt lat="47.30036" lon="-1.52891">
        <ele>3</ele>
        <time>2025-02-06T08:17:16Z</time>
      </trkpt>
      <trkpt lat="47.30016" lon="-1.529">
        <ele>3</ele>
        <time>2025-02-06T08:17:32Z</time>
      </trkpt>
      <trkpt lat="47.29995" lon="-1.52904">
        <ele>8.46</ele>
        <time>2025-02-06T08:17:48Z</time>
      </trkpt>
      <trkpt lat="47.29976" lon="-1.52919">
        <ele>4.8</ele>
        <time>2025-02-06T08:18:04Z</time>
      </trkpt>
      <trkpt lat="47.2996" lon="-1.52934">
        <ele>3.05</ele>
        <time>2025-02-06T08:18:16Z</time>
      </trkpt>
      <trkpt lat="47.29942" lon="-1.52955">
        <ele>3</ele>
        <time>2025-02-06T08:18:32Z</time>
      </trkpt>
      <trkpt lat="47.29927" lon="-1.52973">
        <ele>3</ele>
        <time>2025-02-06T08:18:48Z</time>
      </trkpt>
      <trkpt lat="47.29904" lon="-1.52983">
        <ele>9.81</ele>
        <time>2025-02-06T08:19:04Z</time>
      </trkpt>
      <trkpt lat="47.29883" lon="-1.52995">
        <ele>10</ele>
        <time>2025-02-06T08:19:20Z</time>
      </trkpt>
      <trkpt lat="47.29864" lon="-1.53002">
        <ele>5.8</ele>
        <time>2025-02-06T08:19:36Z</time>
      </trkpt>
      <trkpt lat="47.29848" lon="-1.53021">
        <ele>4.01</ele>
        <time>2025-02-06T08:19:52Z</time>
      </trkpt>
      <trkpt lat="47.29831" lon="-1.53043">
        <ele>7.5</ele>
        <time>2025-02-06T08:20:08Z</time>
      </trkpt>
      <trkpt lat="47.29816" lon="-1.5306">
        <ele>8.96</ele>
        <time>2025-02-06T08:20:20Z</time>
      </trkpt>
      <trkpt lat="47.29796" lon="-1.5307">
        <ele>9</ele>
        <time>2025-02-06T08:20:36Z</time>
      </trkpt>
      <trkpt lat="47.29773" lon="-1.53074">
        <ele>9</ele>
        <time>2025-02-06T08:20:52Z</time>
      </trkpt>
      <trkpt lat="47.29755" lon="-1.53081">
        <ele>9</ele>
        <time>2025-02-06T08:21:04Z</time>
      </trkpt>
      <trkpt lat="47.29734" lon="-1.53087">
        <ele>3.46</ele>
        <time>2025-02-06T08:21:20Z</time>
      </trkpt>
      <trkpt lat="47.2971" lon="-1.53087">
        <ele>3</ele>
        <time>2025-02-06T08:21:37Z</time>
      </trkpt>
      <trkpt lat="47.29691" lon="-1.53079">
        <ele>7.55</ele>
        <time>2025-02-06T08:21:50Z</time>
      </trkpt>
      <trkpt lat="47.29673" lon="-1.53072">
        <ele>7.99</ele>
        <time>2025-02-06T08:22:03Z</time>
      </trkpt>
      <trkpt lat="47.29656" lon="-1.53059">
        <ele>4.36</ele>
        <time>2025-02-06T08:22:16Z</time>
      </trkpt>
      <trkpt lat="47.2964" lon="-1.53047">
        <ele>4.01</ele>
        <time>2025-02-06T08:22:28Z</time>
      </trkpt>
      <trkpt lat="47.29628" lon="-1.53026">
        <ele>4</ele>
        <time>2025-02-06T08:22:40Z</time>
      </trkpt>
      <trkpt lat="47.29613" lon="-1.53007">
        <ele>4</ele>
        <time>2025-02-06T08:22:52Z</time>
      </trkpt>
      <trkpt lat="47.29599" lon="-1.52989">
        <ele>8.55</ele>
        <time>2025-02-06T08:23:04Z</time>
      </trkpt>
      <trkpt lat="47.29587" lon="-1.52964">
        <ele>9</ele>
        <time>2025-02-06T08:23:20Z</time>
      </trkpt>
      <trkpt lat="47.29578" lon="-1.52932">
        <ele>4.13</ele>
        <time>2025-02-06T08:23:36Z</time>
      </trkpt>
      <trkpt lat="47.29574" lon="-1.52902">
        <ele>6.73</ele>
        <time>2025-02-06T08:23:48Z</time>
      </trkpt>
      <trkpt lat="47.29573" lon="-1.52867">
        <ele>7</ele>
        <time>2025-02-06T08:24:04Z</time>
      </trkpt>
      <trkpt lat="47.29568" lon="-1.52837">
        <ele>7</ele>
        <time>2025-02-06T08:24:16Z</time>
      </trkpt>
      <trkpt lat="47.29565" lon="-1.52811">
        <ele>7.97</ele>
        <time>2025-02-06T08:24:28Z</time>
      </trkpt>
      <trkpt lat="47.2956" lon="-1.52785">
        <ele>8</ele>
        <time>2025-02-06T08:24:40Z</time>
      </trkpt>
      <trkpt lat="47.29552" lon="-1.52755">
        <ele>8</ele>
        <time>2025-02-06T08:24:56Z</time>
      </trkpt>
      <trkpt lat="47.2954" lon="-1.52726">
        <ele>8</ele>
        <time>2025-02-06T08:25:12Z</time>
      </trkpt>
      <trkpt lat="47.29528" lon="-1.527">
        <ele>8</ele>
        <time>2025-02-06T08:25:24Z</time>
      </trkpt>
      <trkpt lat="47.29519" lon="-1.52674">
        <ele>8</ele>
        <time>2025-02-06T08:25:36Z</time>
      </trkpt>
      <trkpt lat="47.29512" lon="-1.52641">
        <ele>7.01</ele>
        <time>2025-02-06T08:25:52Z</time>
      </trkpt>
      <trkpt lat="47.29508" lon="-1.52614">
        <ele>7</ele>
        <time>2025-02-06T08:26:04Z</time>
      </trkpt>
      <trkpt lat="47.29502" lon="-1.52588">
        <ele>7</ele>
        <time>2025-02-06T08:26:16Z</time>
      </trkpt>
      <trkpt lat="47.29487" lon="-1.52567">
        <ele>7</ele>
        <time>2025-02-06T08:26:28Z</time>
      </trkpt>
      <trkpt lat="47.29473" lon="-1.52551">
        <ele>7</ele>
        <time>2025-02-06T08:26:40Z</time>
      </trkpt>
      <trkpt lat="47.29458" lon="-1.52536">
        <ele>7</ele>
        <time>2025-02-06T08:26:52Z</time>
      </trkpt>
      <trkpt lat="47.29442" lon="-1.52522">
        <ele>7</ele>
        <time>2025-02-06T08:27:04Z</time>
      </trkpt>
      <trkpt lat="47.29425" lon="-1.52507">
        <ele>7</ele>
        <time>2025-02-06T08:27:16Z</time>
      </trkpt>
      <trkpt lat="47.29411" lon="-1.52527">
        <ele>7</ele>
        <time>2025-02-06T08:27:40Z</time>
      </trkpt>
      <trkpt lat="47.29407" lon="-1.52554">
        <ele>7</ele>
        <time>2025-02-06T08:27:52Z</time>
      </trkpt>
      <trkpt lat="47.29406" lon="-1.52586">
        <ele>5.6</ele>
        <time>2025-02-06T08:28:08Z</time>
      </trkpt>
      <trkpt lat="47.29404" lon="-1.52615">
        <ele>5.02</ele>
        <time>2025-02-06T08:28:20Z</time>
      </trkpt>
      <trkpt lat="47.29401" lon="-1.52643">
        <ele>5</ele>
        <time>2025-02-06T08:28:32Z</time>
      </trkpt>
      <trkpt lat="47.29395" lon="-1.52673">
        <ele>5.7</ele>
        <time>2025-02-06T08:28:44Z</time>
      </trkpt>
      <trkpt lat="47.29387" lon="-1.52698">
        <ele>5.99</ele>
        <time>2025-02-06T08:28:56Z</time>
      </trkpt>
      <trkpt lat="47.2939" lon="-1.52726">
        <ele>6</ele>
        <time>2025-02-06T08:29:08Z</time>
      </trkpt>
      <trkpt lat="47.29391" lon="-1.52754">
        <ele>6</ele>
        <time>2025-02-06T08:29:24Z</time>
      </trkpt>
      <trkpt lat="47.2939" lon="-1.52783">
        <ele>6</ele>
        <time>2025-02-06T08:29:40Z</time>
      </trkpt>
      <trkpt lat="47.29397" lon="-1.52811">
        <ele>6</ele>
        <time>2025-02-06T08:29:52Z</time>
      </trkpt>
      <trkpt lat="47.29404" lon="-1.52845">
        <ele>5.09</ele>
        <time>2025-02-06T08:30:08Z</time>
      </trkpt>
      <trkpt lat="47.29403" lon="-1.52875">
        <ele>5</ele>
        <time>2025-02-06T08:30:24Z</time>
      </trkpt>
      <trkpt lat="47.29395" lon="-1.5291">
        <ele>5</ele>
        <time>2025-02-06T08:30:40Z</time>
      </trkpt>
      <trkpt lat="47.29383" lon="-1.52939">
        <ele>3.05</ele>
        <time>2025-02-06T08:30:56Z</time>
      </trkpt>
      <trkpt lat="47.29368" lon="-1.52964">
        <ele>3</ele>
        <time>2025-02-06T08:31:12Z</time>
      </trkpt>
      <trkpt lat="47.29347" lon="-1.52971">
        <ele>3</ele>
        <time>2025-02-06T08:31:28Z</time>
      </trkpt>
      <trkpt lat="47.29326" lon="-1.52969">
        <ele>6.64</ele>
        <time>2025-02-06T08:31:44Z</time>
      </trkpt>
      <trkpt lat="47.29309" lon="-1.52984">
        <ele>6.99</ele>
        <time>2025-02-06T08:31:56Z</time>
      </trkpt>
      <trkpt lat="47.29291" lon="-1.52999">
        <ele>7</ele>
        <time>2025-02-06T08:32:08Z</time>
      </trkpt>
      <trkpt lat="47.29269" lon="-1.53004">
        <ele>3.03</ele>
        <time>2025-02-06T08:32:24Z</time>
      </trkpt>
      <trkpt lat="47.29248" lon="-1.53001">
        <ele>3.7</ele>
        <time>2025-02-06T08:32:40Z</time>
      </trkpt>
      <trkpt lat="47.29223" lon="-1.53004">
        <ele>4</ele>
        <time>2025-02-06T08:32:56Z</time>
      </trkpt>
      <trkpt lat="47.29203" lon="-1.53007">
        <ele>4</ele>
        <time>2025-02-06T08:33:08Z</time>
      </trkpt>
      <trkpt lat="47.29183" lon="-1.5301">
        <ele>4</ele>
        <time>2025-02-06T08:33:20Z</time>
      </trkpt>
      <trkpt lat="47.29159" lon="-1.53015">
        <ele>4</ele>
        <time>2025-02-06T08:33:36Z</time>
      </trkpt>
      <trkpt lat="47.2914" lon="-1.53017">
        <ele>4</ele>
        <time>2025-02-06T08:33:48Z</time>
      </trkpt>
      <trkpt lat="47.2912" lon="-1.53014">
        <ele>4</ele>
        <time>2025-02-06T08:34:04Z</time>
      </trkpt>
      <trkpt lat="47.29101" lon="-1.5301">
        <ele>4</ele>
        <time>2025-02-06T08:34:16Z</time>
      </trkpt>
      <trkpt lat="47.29084" lon="-1.52997">
        <ele>6.1</ele>
        <time>2025-02-06T08:34:28Z</time>
      </trkpt>
      <trkpt lat="47.29065" lon="-1.52976">
        <ele>6.99</ele>
        <time>2025-02-06T08:34:44Z</time>
      </trkpt>
      <trkpt lat="47.29051" lon="-1.52956">
        <ele>7</ele>
        <time>2025-02-06T08:34:56Z</time>
      </trkpt>
      <trkpt lat="47.29037" lon="-1.52932">
        <ele>7</ele>
        <time>2025-02-06T08:35:08Z</time>
      </trkpt>
      <trkpt lat="47.29025" lon="-1.52912">
        <ele>8.4</ele>
        <time>2025-02-06T08:35:20Z</time>
      </trkpt>
      <trkpt lat="47.2901" lon="-1.52894">
        <ele>8.98</ele>
        <time>2025-02-06T08:35:32Z</time>
      </trkpt>
      <trkpt lat="47.28996" lon="-1.52867">
        <ele>6.9</ele>
        <time>2025-02-06T08:35:48Z</time>
      </trkpt>
      <trkpt lat="47.28982" lon="-1.52848">
        <ele>6.02</ele>
        <time>2025-02-06T08:36:00Z</time>
      </trkpt>
      <trkpt lat="47.28966" lon="-1.52831">
        <ele>8.8</ele>
        <time>2025-02-06T08:36:12Z</time>
      </trkpt>
      <trkpt lat="47.28949" lon="-1.52818">
        <ele>9.97</ele>
        <time>2025-02-06T08:36:24Z</time>
      </trkpt>
      <trkpt lat="47.28932" lon="-1.52806">
        <ele>10</ele>
        <time>2025-02-06T08:36:36Z</time>
      </trkpt>
      <trkpt lat="47.28911" lon="-1.52795">
        <ele>8.6</ele>
        <time>2025-02-06T08:36:52Z</time>
      </trkpt>
      <trkpt lat="47.28895" lon="-1.52779">
        <ele>8.02</ele>
        <time>2025-02-06T08:37:04Z</time>
      </trkpt>
      <trkpt lat="47.28878" lon="-1.52769">
        <ele>8</ele>
        <time>2025-02-06T08:37:16Z</time>
      </trkpt>
      <trkpt lat="47.28857" lon="-1.52757">
        <ele>8</ele>
        <time>2025-02-06T08:37:32Z</time>
      </trkpt>
      <trkpt lat="47.28835" lon="-1.52752">
        <ele>8</ele>
        <time>2025-02-06T08:37:48Z</time>
      </trkpt>
      <trkpt lat="47.28811" lon="-1.52741">
        <ele>11.82</ele>
        <time>2025-02-06T08:38:04Z</time>
      </trkpt>
      <trkpt lat="47.28797" lon="-1.52718">
        <ele>12</ele>
        <time>2025-02-06T08:38:16Z</time>
      </trkpt>
      <trkpt lat="47.28784" lon="-1.52689">
        <ele>12</ele>
        <time>2025-02-06T08:38:32Z</time>
      </trkpt>
      <trkpt lat="47.28765" lon="-1.5268">
        <ele>12</ele>
        <time>2025-02-06T08:38:48Z</time>
      </trkpt>
      <trkpt lat="47.28746" lon="-1.52692">
        <ele>6.4</ele>
        <time>2025-02-06T08:39:00Z</time>
      </trkpt>
      <trkpt lat="47.28727" lon="-1.52689">
        <ele>4.06</ele>
        <time>2025-02-06T08:39:12Z</time>
      </trkpt>
      <trkpt lat="47.28711" lon="-1.52672">
        <ele>4</ele>
        <time>2025-02-06T08:39:24Z</time>
      </trkpt>
      <trkpt lat="47.28692" lon="-1.5265">
        <ele>12.76</ele>
        <time>2025-02-06T08:39:40Z</time>
      </trkpt>
      <trkpt lat="47.28676" lon="-1.52627">
        <ele>13</ele>
        <time>2025-02-06T08:39:56Z</time>
      </trkpt>
      <trkpt lat="47.28652" lon="-1.52615">
        <ele>12.03</ele>
        <time>2025-02-06T08:40:16Z</time>
      </trkpt>
      <trkpt lat="47.28631" lon="-1.52605">
        <ele>12</ele>
        <time>2025-02-06T08:40:32Z</time>
      </trkpt>
      <trkpt lat="47.28614" lon="-1.52596">
        <ele>12</ele>
        <time>2025-02-06T08:40:44Z</time>
      </trkpt>
      <trkpt lat="47.28595" lon="-1.52584">
        <ele>12</ele>
        <time>2025-02-06T08:40:56Z</time>
      </trkpt>
      <trkpt lat="47.28576" lon="-1.52577">
        <ele>21.6</ele>
        <time>2025-02-06T08:41:08Z</time>
      </trkpt>
      <trkpt lat="47.28558" lon="-1.52568">
        <ele>21.99</ele>
        <time>2025-02-06T08:41:20Z</time>
      </trkpt>
      <trkpt lat="47.2854" lon="-1.5256">
        <ele>22</ele>
        <time>2025-02-06T08:41:32Z</time>
      </trkpt>
      <trkpt lat="47.28522" lon="-1.52539">
        <ele>22</ele>
        <time>2025-02-06T08:41:48Z</time>
      </trkpt>
      <trkpt lat="47.28518" lon="-1.52512">
        <ele>22</ele>
        <time>2025-02-06T08:42:00Z</time>
      </trkpt>
      <trkpt lat="47.28498" lon="-1.52501">
        <ele>17.52</ele>
        <time>2025-02-06T08:42:14Z</time>
      </trkpt>
      <trkpt lat="47.28479" lon="-1.52499">
        <ele>20.91</ele>
        <time>2025-02-06T08:42:26Z</time>
      </trkpt>
      <trkpt lat="47.28456" lon="-1.52501">
        <ele>15.16</ele>
        <time>2025-02-06T08:42:38Z</time>
      </trkpt>
      <trkpt lat="47.28438" lon="-1.52504">
        <ele>15</ele>
        <time>2025-02-06T08:42:50Z</time>
      </trkpt>
      <trkpt lat="47.28419" lon="-1.52507">
        <ele>15</ele>
        <time>2025-02-06T08:43:02Z</time>
      </trkpt>
      <trkpt lat="47.284" lon="-1.52499">
        <ele>8.5</ele>
        <time>2025-02-06T08:43:14Z</time>
      </trkpt>
      <trkpt lat="47.28383" lon="-1.52491">
        <ele>9.96</ele>
        <time>2025-02-06T08:43:26Z</time>
      </trkpt>
      <trkpt lat="47.28367" lon="-1.52479">
        <ele>10</ele>
        <time>2025-02-06T08:43:38Z</time>
      </trkpt>
      <trkpt lat="47.28351" lon="-1.5246">
        <ele>10</ele>
        <time>2025-02-06T08:43:54Z</time>
      </trkpt>
      <trkpt lat="47.28329" lon="-1.52453">
        <ele>8.6</ele>
        <time>2025-02-06T08:44:10Z</time>
      </trkpt>
      <trkpt lat="47.28311" lon="-1.52457">
        <ele>8.02</ele>
        <time>2025-02-06T08:44:22Z</time>
      </trkpt>
      <trkpt lat="47.28291" lon="-1.52454">
        <ele>8</ele>
        <time>2025-02-06T08:44:34Z</time>
      </trkpt>
      <trkpt lat="47.28274" lon="-1.52443">
        <ele>8</ele>
        <time>2025-02-06T08:44:46Z</time>
      </trkpt>
      <trkpt lat="47.28257" lon="-1.52422">
        <ele>8</ele>
        <time>2025-02-06T08:45:02Z</time>
      </trkpt>
      <trkpt lat="47.28235" lon="-1.52414">
        <ele>11.89</ele>
        <time>2025-02-06T08:45:18Z</time>
      </trkpt>
      <trkpt lat="47.28213" lon="-1.52415">
        <ele>12</ele>
        <time>2025-02-06T08:45:34Z</time>
      </trkpt>
      <trkpt lat="47.28191" lon="-1.52418">
        <ele>7.8</ele>
        <time>2025-02-06T08:45:46Z</time>
      </trkpt>
      <trkpt lat="47.28168" lon="-1.52417">
        <ele>11.97</ele>
        <time>2025-02-06T08:46:02Z</time>
      </trkpt>
      <trkpt lat="47.28147" lon="-1.52433">
        <ele>6.05</ele>
        <time>2025-02-06T08:46:18Z</time>
      </trkpt>
      <trkpt lat="47.2813" lon="-1.52446">
        <ele>6</ele>
        <time>2025-02-06T08:46:30Z</time>
      </trkpt>
      <trkpt lat="47.28111" lon="-1.52453">
        <ele>6</ele>
        <time>2025-02-06T08:46:42Z</time>
      </trkpt>
      <trkpt lat="47.28089" lon="-1.52442">
        <ele>6</ele>
        <time>2025-02-06T08:46:58Z</time>
      </trkpt>
      <trkpt lat="47.28065" lon="-1.52437">
        <ele>14.93</ele>
        <time>2025-02-06T08:47:14Z</time>
      </trkpt>
      <trkpt lat="47.28044" lon="-1.52425">
        <ele>15</ele>
        <time>2025-02-06T08:47:26Z</time>
      </trkpt>
      <trkpt lat="47.28043" lon="-1.5239">
        <ele>18.97</ele>
        <time>2025-02-06T08:47:42Z</time>
      </trkpt>
      <trkpt lat="47.28044" lon="-1.52358">
        <ele>19</ele>
        <time>2025-02-06T08:47:58Z</time>
      </trkpt>
      <trkpt lat="47.28032" lon="-1.52337">
        <ele>19</ele>
        <time>2025-02-06T08:48:10Z</time>
      </trkpt>
      <trkpt lat="47.28013" lon="-1.52333">
        <ele>17.6</ele>
        <time>2025-02-06T08:48:22Z</time>
      </trkpt>
      <trkpt lat="47.27993" lon="-1.52321">
        <ele>11.54</ele>
        <time>2025-02-06T08:48:38Z</time>
      </trkpt>
      <trkpt lat="47.27974" lon="-1.52302">
        <ele>11</ele>
        <time>2025-02-06T08:48:54Z</time>
      </trkpt>
      <trkpt lat="47.27957" lon="-1.52291">
        <ele>11</ele>
        <time>2025-02-06T08:49:06Z</time>
      </trkpt>
      <trkpt lat="47.27935" lon="-1.52277">
        <ele>11</ele>
        <time>2025-02-06T08:49:22Z</time>
      </trkpt>
      <trkpt lat="47.27918" lon="-1.52291">
        <ele>11</ele>
        <time>2025-02-06T08:49:38Z</time>
      </trkpt>
      <trkpt lat="47.27904" lon="-1.52314">
        <ele>13.98</ele>
        <time>2025-02-06T08:49:54Z</time>
      </trkpt>
      <trkpt lat="47.27892" lon="-1.52337">
        <ele>11.9</ele>
        <time>2025-02-06T08:50:06Z</time>
      </trkpt>
      <trkpt lat="47.27875" lon="-1.52357">
        <ele>11.01</ele>
        <time>2025-02-06T08:50:22Z</time>
      </trkpt>
      <trkpt lat="47.27855" lon="-1.52376">
        <ele>11</ele>
        <time>2025-02-06T08:50:38Z</time>
      </trkpt>
      <trkpt lat="47.27834" lon="-1.5239">
        <ele>11</ele>
        <time>2025-02-06T08:50:54Z</time>
      </trkpt>
      <trkpt lat="47.27816" lon="-1.52399">
        <ele>13.92</ele>
        <time>2025-02-06T08:51:06Z</time>
      </trkpt>
      <trkpt lat="47.27797" lon="-1.52408">
        <ele>14</ele>
        <time>2025-02-06T08:51:18Z</time>
      </trkpt>
      <trkpt lat="47.27774" lon="-1.52407">
        <ele>14</ele>
        <time>2025-02-06T08:51:34Z</time>
      </trkpt>
      <trkpt lat="47.27752" lon="-1.52419">
        <ele>12.6</ele>
        <time>2025-02-06T08:51:54Z</time>
      </trkpt>
      <trkpt lat="47.2773" lon="-1.52432">
        <ele>12</ele>
        <time>2025-02-06T08:52:10Z</time>
      </trkpt>
      <trkpt lat="47.27712" lon="-1.52425">
        <ele>12</ele>
        <time>2025-02-06T08:52:26Z</time>
      </trkpt>
      <trkpt lat="47.27694" lon="-1.52401">
        <ele>13.95</ele>
        <time>2025-02-06T08:52:42Z</time>
      </trkpt>
      <trkpt lat="47.27681" lon="-1.52377">
        <ele>14</ele>
        <time>2025-02-06T08:52:58Z</time>
      </trkpt>
      <trkpt lat="47.27669" lon="-1.52355">
        <ele>14</ele>
        <time>2025-02-06T08:53:10Z</time>
      </trkpt>
      <trkpt lat="47.27649" lon="-1.52347">
        <ele>14</ele>
        <time>2025-02-06T08:53:26Z</time>
      </trkpt>
      <trkpt lat="47.27636" lon="-1.52366">
        <ele>14</ele>
        <time>2025-02-06T08:54:02Z</time>
      </trkpt>
      <trkpt lat="47.27624" lon="-1.52388">
        <ele>14</ele>
        <time>2025-02-06T08:54:14Z</time>
      </trkpt>
      <trkpt lat="47.27616" lon="-1.52419">
        <ele>10.5</ele>
        <time>2025-02-06T08:54:30Z</time>
      </trkpt>
      <trkpt lat="47.27609" lon="-1.52445">
        <ele>9.04</ele>
        <time>2025-02-06T08:54:42Z</time>
      </trkpt>
      <trkpt lat="47.27607" lon="-1.52477">
        <ele>9</ele>
        <time>2025-02-06T08:54:58Z</time>
      </trkpt>
      <trkpt lat="47.27603" lon="-1.52503">
        <ele>9</ele>
        <time>2025-02-06T08:55:10Z</time>
      </trkpt>
      <trkpt lat="47.27587" lon="-1.52523">
        <ele>9</ele>
        <time>2025-02-06T08:55:30Z</time>
      </trkpt>
      <trkpt lat="47.27573" lon="-1.52547">
        <ele>7.02</ele>
        <time>2025-02-06T08:55:46Z</time>
      </trkpt>
      <trkpt lat="47.27569" lon="-1.52577">
        <ele>7</ele>
        <time>2025-02-06T08:55:58Z</time>
      </trkpt>
      <trkpt lat="47.2756" lon="-1.52606">
        <ele>-0.94</ele>
        <time>2025-02-06T08:56:14Z</time>
      </trkpt>
      <trkpt lat="47.27553" lon="-1.52634">
        <ele>-1</ele>
        <time>2025-02-06T08:56:30Z</time>
      </trkpt>
      <trkpt lat="47.27539" lon="-1.52657">
        <ele>-1</ele>
        <time>2025-02-06T08:56:42Z</time>
      </trkpt>
      <trkpt lat="47.2753" lon="-1.52686">
        <ele>3.87</ele>
        <time>2025-02-06T08:56:58Z</time>
      </trkpt>
      <trkpt lat="47.2752" lon="-1.52715">
        <ele>4</ele>
        <time>2025-02-06T08:57:14Z</time>
      </trkpt>
      <trkpt lat="47.27507" lon="-1.52741">
        <ele>4</ele>
        <time>2025-02-06T08:57:30Z</time>
      </trkpt>
      <trkpt lat="47.27493" lon="-1.5277">
        <ele>4.83</ele>
        <time>2025-02-06T08:57:50Z</time>
      </trkpt>
      <trkpt lat="47.27484" lon="-1.52794">
        <ele>5</ele>
        <time>2025-02-06T08:58:02Z</time>
      </trkpt>
      <trkpt lat="47.27463" lon="-1.52806">
        <ele>5</ele>
        <time>2025-02-06T08:58:18Z</time>
      </trkpt>
      <trkpt lat="47.27444" lon="-1.5282">
        <ele>5</ele>
        <time>2025-02-06T08:58:34Z</time>
      </trkpt>
      <trkpt lat="47.27428" lon="-1.52835">
        <ele>3.6</ele>
        <time>2025-02-06T08:58:46Z</time>
      </trkpt>
      <trkpt lat="47.27411" lon="-1.52845">
        <ele>5.75</ele>
        <time>2025-02-06T08:58:58Z</time>
      </trkpt>
      <trkpt lat="47.27393" lon="-1.52859">
        <ele>6</ele>
        <time>2025-02-06T08:59:14Z</time>
      </trkpt>
      <trkpt lat="47.27374" lon="-1.52866">
        <ele>6</ele>
        <time>2025-02-06T08:59:26Z</time>
      </trkpt>
      <trkpt lat="47.27353" lon="-1.52875">
        <ele>6</ele>
        <time>2025-02-06T08:59:38Z</time>
      </trkpt>
      <trkpt lat="47.27333" lon="-1.52876">
        <ele>5.3</ele>
        <time>2025-02-06T08:59:50Z</time>
      </trkpt>
      <trkpt lat="47.27321" lon="-1.529">
        <ele>5.01</ele>
        <time>2025-02-06T09:00:02Z</time>
      </trkpt>
      <trkpt lat="47.27307" lon="-1.52924">
        <ele>3.18</ele>
        <time>2025-02-06T09:00:18Z</time>
      </trkpt>
      <trkpt lat="47.27295" lon="-1.5295">
        <ele>3</ele>
        <time>2025-02-06T09:00:34Z</time>
      </trkpt>
      <trkpt lat="47.27281" lon="-1.52971">
        <ele>3</ele>
        <time>2025-02-06T09:00:46Z</time>
      </trkpt>
      <trkpt lat="47.27268" lon="-1.52995">
        <ele>3</ele>
        <time>2025-02-06T09:01:02Z</time>
      </trkpt>
      <trkpt lat="47.27254" lon="-1.53011">
        <ele>3</ele>
        <time>2025-02-06T09:01:14Z</time>
      </trkpt>
      <trkpt lat="47.27238" lon="-1.53029">
        <ele>3</ele>
        <time>2025-02-06T09:01:26Z</time>
      </trkpt>
      <trkpt lat="47.27218" lon="-1.53037">
        <ele>3</ele>
        <time>2025-02-06T09:01:42Z</time>
      </trkpt>
      <trkpt lat="47.27197" lon="-1.5305">
        <ele>3</ele>
        <time>2025-02-06T09:01:58Z</time>
      </trkpt>
      <trkpt lat="47.27185" lon="-1.53076">
        <ele>3</ele>
        <time>2025-02-06T09:02:14Z</time>
      </trkpt>
      <trkpt lat="47.27179" lon="-1.53103">
        <ele>3</ele>
        <time>2025-02-06T09:02:26Z</time>
      </trkpt>
      <trkpt lat="47.27164" lon="-1.53122">
        <ele>5.1</ele>
        <time>2025-02-06T09:02:42Z</time>
      </trkpt>
      <trkpt lat="47.27145" lon="-1.53142">
        <ele>5.99</ele>
        <time>2025-02-06T09:02:58Z</time>
      </trkpt>
      <trkpt lat="47.27128" lon="-1.5316">
        <ele>6</ele>
        <time>2025-02-06T09:03:10Z</time>
      </trkpt>
      <trkpt lat="47.27108" lon="-1.53174">
        <ele>3.08</ele>
        <time>2025-02-06T09:03:26Z</time>
      </trkpt>
      <trkpt lat="47.27088" lon="-1.53192">
        <ele>3</ele>
        <time>2025-02-06T09:03:42Z</time>
      </trkpt>
      <trkpt lat="47.27067" lon="-1.53189">
        <ele>6.97</ele>
        <time>2025-02-06T09:03:58Z</time>
      </trkpt>
      <trkpt lat="47.27048" lon="-1.53183">
        <ele>7</ele>
        <time>2025-02-06T09:04:14Z</time>
      </trkpt>
      <trkpt lat="47.27029" lon="-1.53198">
        <ele>7</ele>
        <time>2025-02-06T09:04:30Z</time>
      </trkpt>
      <trkpt lat="47.27025" lon="-1.53225">
        <ele>7</ele>
        <time>2025-02-06T09:04:42Z</time>
      </trkpt>
      <trkpt lat="47.27007" lon="-1.53249">
        <ele>7</ele>
        <time>2025-02-06T09:04:58Z</time>
      </trkpt>
      <trkpt lat="47.26991" lon="-1.53265">
        <ele>3.11</ele>
        <time>2025-02-06T09:05:10Z</time>
      </trkpt>
      <trkpt lat="47.26975" lon="-1.53277">
        <ele>3</ele>
        <time>2025-02-06T09:05:22Z</time>
      </trkpt>
      <trkpt lat="47.26957" lon="-1.53287">
        <ele>3</ele>
        <time>2025-02-06T09:05:34Z</time>
      </trkpt>
      <trkpt lat="47.26935" lon="-1.53293">
        <ele>3</ele>
        <time>2025-02-06T09:05:54Z</time>
      </trkpt>
      <trkpt lat="47.26925" lon="-1.53316">
        <ele>3</ele>
        <time>2025-02-06T09:06:10Z</time>
      </trkpt>
      <trkpt lat="47.26912" lon="-1.53346">
        <ele>5.1</ele>
        <time>2025-02-06T09:06:26Z</time>
      </trkpt>
      <trkpt lat="47.26895" lon="-1.53366">
        <ele>5.99</ele>
        <time>2025-02-06T09:06:42Z</time>
      </trkpt>
      <trkpt lat="47.26882" lon="-1.53387">
        <ele>6</ele>
        <time>2025-02-06T09:06:54Z</time>
      </trkpt>
      <trkpt lat="47.26867" lon="-1.53407">
        <ele>6</ele>
        <time>2025-02-06T09:07:06Z</time>
      </trkpt>
      <trkpt lat="47.26851" lon="-1.53424">
        <ele>3.9</ele>
        <time>2025-02-06T09:07:18Z</time>
      </trkpt>
      <trkpt lat="47.26831" lon="-1.5343">
        <ele>3.72</ele>
        <time>2025-02-06T09:07:30Z</time>
      </trkpt>
      <trkpt lat="47.26812" lon="-1.53416">
        <ele>8.9</ele>
        <time>2025-02-06T09:07:46Z</time>
      </trkpt>
      <trkpt lat="47.26794" lon="-1.53399">
        <ele>10.98</ele>
        <time>2025-02-06T09:08:02Z</time>
      </trkpt>
      <trkpt lat="47.26774" lon="-1.53389">
        <ele>11</ele>
        <time>2025-02-06T09:08:14Z</time>
      </trkpt>
      <trkpt lat="47.26751" lon="-1.53398">
        <ele>11</ele>
        <time>2025-02-06T09:08:30Z</time>
      </trkpt>
      <trkpt lat="47.26733" lon="-1.53403">
        <ele>13.92</ele>
        <time>2025-02-06T09:08:42Z</time>
      </trkpt>
      <trkpt lat="47.26711" lon="-1.53417">
        <ele>9.1</ele>
        <time>2025-02-06T09:08:58Z</time>
      </trkpt>
      <trkpt lat="47.26707" lon="-1.53447">
        <ele>7.02</ele>
        <time>2025-02-06T09:09:14Z</time>
      </trkpt>
      <trkpt lat="47.26711" lon="-1.53474">
        <ele>7</ele>
        <time>2025-02-06T09:09:30Z</time>
      </trkpt>
      <trkpt lat="47.26713" lon="-1.53505">
        <ele>6.3</ele>
        <time>2025-02-06T09:09:46Z</time>
      </trkpt>
      <trkpt lat="47.2672" lon="-1.53535">
        <ele>6.01</ele>
        <time>2025-02-06T09:09:58Z</time>
      </trkpt>
      <trkpt lat="47.26724" lon="-1.53567">
        <ele>6</ele>
        <time>2025-02-06T09:10:10Z</time>
      </trkpt>
      <trkpt lat="47.26708" lon="-1.53584">
        <ele>3.9</ele>
        <time>2025-02-06T09:10:26Z</time>
      </trkpt>
      <trkpt lat="47.2669" lon="-1.53593">
        <ele>3.02</ele>
        <time>2025-02-06T09:10:38Z</time>
      </trkpt>
      <trkpt lat="47.26668" lon="-1.53599">
        <ele>3</ele>
        <time>2025-02-06T09:10:54Z</time>
      </trkpt>
      <trkpt lat="47.26648" lon="-1.53601">
        <ele>3</ele>
        <time>2025-02-06T09:11:10Z</time>
      </trkpt>
      <trkpt lat="47.26629" lon="-1.53603">
        <ele>3</ele>
        <time>2025-02-06T09:11:22Z</time>
      </trkpt>
      <trkpt lat="47.26609" lon="-1.53599">
        <ele>3</ele>
        <time>2025-02-06T09:11:38Z</time>
      </trkpt>
      <trkpt lat="47.26585" lon="-1.53594">
        <ele>3</ele>
        <time>2025-02-06T09:11:54Z</time>
      </trkpt>
      <trkpt lat="47.26564" lon="-1.53579">
        <ele>6.64</ele>
        <time>2025-02-06T09:12:10Z</time>
      </trkpt>
      <trkpt lat="47.26543" lon="-1.53566">
        <ele>7</ele>
        <time>2025-02-06T09:12:30Z</time>
      </trkpt>
      <trkpt lat="47.26522" lon="-1.53559">
        <ele>7</ele>
        <time>2025-02-06T09:12:46Z</time>
      </trkpt>
      <trkpt lat="47.26504" lon="-1.53553">
        <ele>7</ele>
        <time>2025-02-06T09:12:58Z</time>
      </trkpt>
      <trkpt lat="47.26484" lon="-1.53548">
        <ele>6.03</ele>
        <time>2025-02-06T09:13:10Z</time>
      </trkpt>
      <trkpt lat="47.26463" lon="-1.5354">
        <ele>6</ele>
        <time>2025-02-06T09:13:26Z</time>
      </trkpt>
      <trkpt lat="47.26445" lon="-1.53551">
        <ele>6</ele>
        <time>2025-02-06T09:13:38Z</time>
      </trkpt>
      <trkpt lat="47.26427" lon="-1.53562">
        <ele>6</ele>
        <time>2025-02-06T09:13:50Z</time>
      </trkpt>
      <trkpt lat="47.26409" lon="-1.53568">
        <ele>4.18</ele>
        <time>2025-02-06T09:14:02Z</time>
      </trkpt>
      <trkpt lat="47.26387" lon="-1.53582">
        <ele>4</ele>
        <time>2025-02-06T09:14:18Z</time>
      </trkpt>
      <trkpt lat="47.26371" lon="-1.53594">
        <ele>3.03</ele>
        <time>2025-02-06T09:14:30Z</time>
      </trkpt>
      <trkpt lat="47.26353" lon="-1.5356">
        <ele>8.6</ele>
      </trkpt>
      <trkpt lat="47.26328" lon="-1.5353">
        <ele>13.8</ele>
      </trkpt>
      <trkpt lat="47.2631" lon="-1.53189">
        <ele>16.9</ele>
      </trkpt>
      <trkpt lat="47.26214" lon="-1.53124">
        <ele>8.2</ele>
      </trkpt>
      <trkpt lat="47.26155" lon="-1.53274">
        <ele>6.7</ele>
      </trkpt>
      <trkpt lat="47.26176" lon="-1.53412">
        <ele>8.3</ele>
      </trkpt>
      <trkpt lat="47.26142" lon="-1.53489">
        <ele>8.55</ele>
        <time>2025-02-06T09:17:47Z</time>
      </trkpt>
      <trkpt lat="47.2613" lon="-1.53466">
        <ele>8.99</ele>
        <time>2025-02-06T09:17:59Z</time>
      </trkpt>
      <trkpt lat="47.26113" lon="-1.53443">
        <ele>9</ele>
        <time>2025-02-06T09:18:15Z</time>
      </trkpt>
      <trkpt lat="47.26093" lon="-1.53432">
        <ele>9</ele>
        <time>2025-02-06T09:18:31Z</time>
      </trkpt>
      <trkpt lat="47.2607" lon="-1.53431">
        <ele>7.05</ele>
        <time>2025-02-06T09:18:47Z</time>
      </trkpt>
      <trkpt lat="47.26048" lon="-1.53445">
        <ele>7</ele>
        <time>2025-02-06T09:19:07Z</time>
      </trkpt>
      <trkpt lat="47.26025" lon="-1.5345">
        <ele>7</ele>
        <time>2025-02-06T09:19:23Z</time>
      </trkpt>
      <trkpt lat="47.26006" lon="-1.53447">
        <ele>7</ele>
        <time>2025-02-06T09:19:35Z</time>
      </trkpt>
      <trkpt lat="47.25989" lon="-1.53435">
        <ele>6.09</ele>
        <time>2025-02-06T09:19:47Z</time>
      </trkpt>
      <trkpt lat="47.25968" lon="-1.53423">
        <ele>6</ele>
        <time>2025-02-06T09:20:03Z</time>
      </trkpt>
      <trkpt lat="47.25948" lon="-1.53407">
        <ele>7.95</ele>
        <time>2025-02-06T09:20:19Z</time>
      </trkpt>
      <trkpt lat="47.25927" lon="-1.53405">
        <ele>8</ele>
        <time>2025-02-06T09:20:35Z</time>
      </trkpt>
      <trkpt lat="47.25907" lon="-1.53406">
        <ele>11.64</ele>
        <time>2025-02-06T09:20:47Z</time>
      </trkpt>
      <trkpt lat="47.25889" lon="-1.53411">
        <ele>11.99</ele>
        <time>2025-02-06T09:20:59Z</time>
      </trkpt>
      <trkpt lat="47.25865" lon="-1.53418">
        <ele>11.3</ele>
        <time>2025-02-06T09:21:15Z</time>
      </trkpt>
      <trkpt lat="47.25847" lon="-1.53428">
        <ele>11.01</ele>
        <time>2025-02-06T09:21:27Z</time>
      </trkpt>
      <trkpt lat="47.25826" lon="-1.53442">
        <ele>8.27</ele>
        <time>2025-02-06T09:21:43Z</time>
      </trkpt>
      <trkpt lat="47.25803" lon="-1.53447">
        <ele>8</ele>
        <time>2025-02-06T09:21:59Z</time>
      </trkpt>
      <trkpt lat="47.25783" lon="-1.5346">
        <ele>8</ele>
        <time>2025-02-06T09:22:15Z</time>
      </trkpt>
      <trkpt lat="47.2577" lon="-1.53479">
        <ele>8</ele>
        <time>2025-02-06T09:22:27Z</time>
      </trkpt>
      <trkpt lat="47.25758" lon="-1.53502">
        <ele>4.5</ele>
        <time>2025-02-06T09:22:39Z</time>
      </trkpt>
      <trkpt lat="47.25742" lon="-1.53525">
        <ele>3.92</ele>
        <time>2025-02-06T09:22:55Z</time>
      </trkpt>
      <trkpt lat="47.25733" lon="-1.53549">
        <ele>4</ele>
        <time>2025-02-06T09:23:07Z</time>
      </trkpt>
      <trkpt lat="47.25722" lon="-1.53571">
        <ele>4</ele>
        <time>2025-02-06T09:23:19Z</time>
      </trkpt>
      <trkpt lat="47.25703" lon="-1.53586">
        <ele>4</ele>
        <time>2025-02-06T09:23:35Z</time>
      </trkpt>
      <trkpt lat="47.25696" lon="-1.53618">
        <ele>4</ele>
        <time>2025-02-06T09:23:51Z</time>
      </trkpt>
      <trkpt lat="47.25684" lon="-1.53639">
        <ele>4</ele>
        <time>2025-02-06T09:24:03Z</time>
      </trkpt>
      <trkpt lat="47.25667" lon="-1.5365">
        <ele>4</ele>
        <time>2025-02-06T09:24:15Z</time>
      </trkpt>
      <trkpt lat="47.25647" lon="-1.53658">
        <ele>7.97</ele>
        <time>2025-02-06T09:24:31Z</time>
      </trkpt>
      <trkpt lat="47.25631" lon="-1.53678">
        <ele>5.27</ele>
        <time>2025-02-06T09:24:47Z</time>
      </trkpt>
      <trkpt lat="47.25619" lon="-1.53707">
        <ele>5</ele>
        <time>2025-02-06T09:25:03Z</time>
      </trkpt>
      <trkpt lat="47.25611" lon="-1.53737">
        <ele>5</ele>
        <time>2025-02-06T09:25:19Z</time>
      </trkpt>
      <trkpt lat="47.25598" lon="-1.53761">
        <ele>3.18</ele>
        <time>2025-02-06T09:25:35Z</time>
      </trkpt>
      <trkpt lat="47.25593" lon="-1.53789">
        <ele>3</ele>
        <time>2025-02-06T09:26:04Z</time>
      </trkpt>
      <trkpt lat="47.25577" lon="-1.53808">
        <ele>8.46</ele>
        <time>2025-02-06T09:26:16Z</time>
      </trkpt>
      <trkpt lat="47.25556" lon="-1.53829">
        <ele>9</ele>
        <time>2025-02-06T09:26:32Z</time>
      </trkpt>
      <trkpt lat="47.25555" lon="-1.53856">
        <ele>6</ele>
        <time>2025-02-06T09:27:28Z</time>
      </trkpt>
      <trkpt lat="47.25563" lon="-1.53881">
        <ele>6</ele>
        <time>2025-02-06T09:27:40Z</time>
      </trkpt>
      <trkpt lat="47.2557" lon="-1.53905">
        <ele>6</ele>
        <time>2025-02-06T09:27:52Z</time>
      </trkpt>
      <trkpt lat="47.25579" lon="-1.53936">
        <ele>11.84</ele>
        <time>2025-02-06T09:28:08Z</time>
      </trkpt>
      <trkpt lat="47.25588" lon="-1.53968">
        <ele>12.97</ele>
        <time>2025-02-06T09:28:24Z</time>
      </trkpt>
      <trkpt lat="47.25607" lon="-1.53957">
        <ele>13</ele>
        <time>2025-02-06T09:29:32Z</time>
      </trkpt>
      <trkpt lat="47.25629" lon="-1.53947">
        <ele>13</ele>
        <time>2025-02-06T09:29:48Z</time>
      </trkpt>
      <trkpt lat="47.25646" lon="-1.53938">
        <ele>13</ele>
        <time>2025-02-06T09:30:00Z</time>
      </trkpt>
      <trkpt lat="47.25665" lon="-1.53933">
        <ele>13</ele>
        <time>2025-02-06T09:30:12Z</time>
      </trkpt>
      <trkpt lat="47.25689" lon="-1.53923">
        <ele>12.01</ele>
        <time>2025-02-06T09:30:28Z</time>
      </trkpt>
      <trkpt lat="47.25708" lon="-1.53917">
        <ele>12</ele>
        <time>2025-02-06T09:30:40Z</time>
      </trkpt>
      <trkpt lat="47.25727" lon="-1.53923">
        <ele>11.59</ele>
        <time>2025-02-06T09:30:56Z</time>
      </trkpt>
      <trkpt lat="47.25744" lon="-1.53945">
        <ele>12</ele>
        <time>2025-02-06T09:31:12Z</time>
      </trkpt>
      <trkpt lat="47.2576" lon="-1.53962">
        <ele>12.91</ele>
        <time>2025-02-06T09:31:24Z</time>
      </trkpt>
      <trkpt lat="47.25778" lon="-1.53966">
        <ele>13</ele>
        <time>2025-02-06T09:31:40Z</time>
      </trkpt>
      <trkpt lat="47.25797" lon="-1.53956">
        <ele>13</ele>
        <time>2025-02-06T09:31:52Z</time>
      </trkpt>
      <trkpt lat="47.25815" lon="-1.53948">
        <ele>13</ele>
        <time>2025-02-06T09:32:08Z</time>
      </trkpt>
      <trkpt lat="47.25837" lon="-1.53942">
        <ele>14.4</ele>
        <time>2025-02-06T09:32:24Z</time>
      </trkpt>
      <trkpt lat="47.25856" lon="-1.53932">
        <ele>15</ele>
        <time>2025-02-06T09:32:40Z</time>
      </trkpt>
      <trkpt lat="47.25874" lon="-1.53918">
        <ele>15</ele>
        <time>2025-02-06T09:32:52Z</time>
      </trkpt>
      <trkpt lat="47.25891" lon="-1.53905">
        <ele>10.13</ele>
        <time>2025-02-06T09:33:04Z</time>
      </trkpt>
      <trkpt lat="47.25908" lon="-1.53896">
        <ele>10</ele>
        <time>2025-02-06T09:33:16Z</time>
      </trkpt>
      <trkpt lat="47.25926" lon="-1.53887">
        <ele>11.82</ele>
        <time>2025-02-06T09:33:28Z</time>
      </trkpt>
      <trkpt lat="47.25947" lon="-1.53875">
        <ele>12</ele>
        <time>2025-02-06T09:33:44Z</time>
      </trkpt>
      <trkpt lat="47.25965" lon="-1.53858">
        <ele>12</ele>
        <time>2025-02-06T09:34:00Z</time>
      </trkpt>
      <trkpt lat="47.2599" lon="-1.53848">
        <ele>12</ele>
        <time>2025-02-06T09:34:16Z</time>
      </trkpt>
      <trkpt lat="47.26011" lon="-1.53842">
        <ele>13.82</ele>
        <time>2025-02-06T09:34:28Z</time>
      </trkpt>
      <trkpt lat="47.26034" lon="-1.53843">
        <ele>14</ele>
        <time>2025-02-06T09:34:44Z</time>
      </trkpt>
      <trkpt lat="47.26053" lon="-1.53841">
        <ele>14</ele>
        <time>2025-02-06T09:35:00Z</time>
      </trkpt>
      <trkpt lat="47.26077" lon="-1.53846">
        <ele>14</ele>
        <time>2025-02-06T09:35:16Z</time>
      </trkpt>
      <trkpt lat="47.261" lon="-1.53846">
        <ele>19.95</ele>
        <time>2025-02-06T09:35:36Z</time>
      </trkpt>
      <trkpt lat="47.26119" lon="-1.53836">
        <ele>20</ele>
        <time>2025-02-06T09:35:52Z</time>
      </trkpt>
      <trkpt lat="47.26141" lon="-1.53837">
        <ele>20</ele>
        <time>2025-02-06T09:36:08Z</time>
      </trkpt>
      <trkpt lat="47.26163" lon="-1.53838">
        <ele>20</ele>
        <time>2025-02-06T09:36:24Z</time>
      </trkpt>
      <trkpt lat="47.26183" lon="-1.53844">
        <ele>13.19</ele>
        <time>2025-02-06T09:36:36Z</time>
      </trkpt>
      <trkpt lat="47.26202" lon="-1.53857">
        <ele>13.01</ele>
        <time>2025-02-06T09:36:49Z</time>
      </trkpt>
      <trkpt lat="47.26223" lon="-1.53873">
        <ele>13</ele>
        <time>2025-02-06T09:37:06Z</time>
      </trkpt>
      <trkpt lat="47.2624" lon="-1.53889">
        <ele>13</ele>
        <time>2025-02-06T09:37:18Z</time>
      </trkpt>
      <trkpt lat="47.26259" lon="-1.53909">
        <ele>6.19</ele>
        <time>2025-02-06T09:37:38Z</time>
      </trkpt>
      <trkpt lat="47.26276" lon="-1.53923">
        <ele>8.74</ele>
        <time>2025-02-06T09:37:50Z</time>
      </trkpt>
      <trkpt lat="47.26296" lon="-1.53942">
        <ele>9</ele>
        <time>2025-02-06T09:38:06Z</time>
      </trkpt>
      <trkpt lat="47.26309" lon="-1.53961">
        <ele>9</ele>
        <time>2025-02-06T09:38:18Z</time>
      </trkpt>
      <trkpt lat="47.26326" lon="-1.53969">
        <ele>9</ele>
        <time>2025-02-06T09:38:30Z</time>
      </trkpt>
      <trkpt lat="47.26343" lon="-1.53978">
        <ele>6.27</ele>
        <time>2025-02-06T09:38:42Z</time>
      </trkpt>
      <trkpt lat="47.26362" lon="-1.53985">
        <ele>6</ele>
        <time>2025-02-06T09:38:58Z</time>
      </trkpt>
      <trkpt lat="47.2638" lon="-1.53988">
        <ele>6</ele>
        <time>2025-02-06T09:39:10Z</time>
      </trkpt>
      <trkpt lat="47.26401" lon="-1.53995">
        <ele>6</ele>
        <time>2025-02-06T09:39:26Z</time>
      </trkpt>
      <trkpt lat="47.26421" lon="-1.53993">
        <ele>6</ele>
        <time>2025-02-06T09:39:42Z</time>
      </trkpt>
      <trkpt lat="47.26442" lon="-1.53999">
        <ele>6</ele>
        <time>2025-02-06T09:39:54Z</time>
      </trkpt>
      <trkpt lat="47.26462" lon="-1.53996">
        <ele>6</ele>
        <time>2025-02-06T09:40:10Z</time>
      </trkpt>
      <trkpt lat="47.26484" lon="-1.53985">
        <ele>6</ele>
        <time>2025-02-06T09:40:26Z</time>
      </trkpt>
      <trkpt lat="47.26497" lon="-1.54006">
        <ele>8.8</ele>
        <time>2025-02-06T09:40:42Z</time>
      </trkpt>
      <trkpt lat="47.26509" lon="-1.54034">
        <ele>14.86</ele>
        <time>2025-02-06T09:40:58Z</time>
      </trkpt>
      <trkpt lat="47.26522" lon="-1.5406">
        <ele>15</ele>
        <time>2025-02-06T09:41:14Z</time>
      </trkpt>
      <trkpt lat="47.26536" lon="-1.54088">
        <ele>15.7</ele>
        <time>2025-02-06T09:41:30Z</time>
      </trkpt>
      <trkpt lat="47.26546" lon="-1.54115">
        <ele>16</ele>
        <time>2025-02-06T09:41:46Z</time>
      </trkpt>
      <trkpt lat="47.26559" lon="-1.54142">
        <ele>16</ele>
        <time>2025-02-06T09:42:02Z</time>
      </trkpt>
      <trkpt lat="47.26572" lon="-1.54168">
        <ele>16.7</ele>
        <time>2025-02-06T09:42:18Z</time>
      </trkpt>
      <trkpt lat="47.26583" lon="-1.54196">
        <ele>17</ele>
        <time>2025-02-06T09:42:34Z</time>
      </trkpt>
      <trkpt lat="47.26594" lon="-1.54221">
        <ele>20.97</ele>
        <time>2025-02-06T09:42:50Z</time>
      </trkpt>
      <trkpt lat="47.26607" lon="-1.54247">
        <ele>21</ele>
        <time>2025-02-06T09:43:06Z</time>
      </trkpt>
      <trkpt lat="47.26621" lon="-1.54273">
        <ele>21</ele>
        <time>2025-02-06T09:43:22Z</time>
      </trkpt>
      <trkpt lat="47.26631" lon="-1.54302">
        <ele>21</ele>
        <time>2025-02-06T09:43:38Z</time>
      </trkpt>
      <trkpt lat="47.26636" lon="-1.54334">
        <ele>22.4</ele>
        <time>2025-02-06T09:43:54Z</time>
      </trkpt>
      <trkpt lat="47.26634" lon="-1.54363">
        <ele>23</ele>
        <time>2025-02-06T09:44:10Z</time>
      </trkpt>
      <trkpt lat="47.26619" lon="-1.54383">
        <ele>23</ele>
        <time>2025-02-06T09:44:26Z</time>
      </trkpt>
      <trkpt lat="47.26597" lon="-1.54385">
        <ele>23</ele>
        <time>2025-02-06T09:44:42Z</time>
      </trkpt>
      <trkpt lat="47.2658" lon="-1.54406">
        <ele>22.09</ele>
        <time>2025-02-06T09:44:58Z</time>
      </trkpt>
      <trkpt lat="47.26585" lon="-1.5444">
        <ele>24.79</ele>
        <time>2025-02-06T09:45:14Z</time>
      </trkpt>
      <trkpt lat="47.26596" lon="-1.54463">
        <ele>24.99</ele>
        <time>2025-02-06T09:45:26Z</time>
      </trkpt>
      <trkpt lat="47.2662" lon="-1.54465">
        <ele>25</ele>
        <time>2025-02-06T09:45:42Z</time>
      </trkpt>
      <trkpt lat="47.26638" lon="-1.54459">
        <ele>25</ele>
        <time>2025-02-06T09:45:54Z</time>
      </trkpt>
      <trkpt lat="47.26656" lon="-1.54454">
        <ele>25</ele>
        <time>2025-02-06T09:46:06Z</time>
      </trkpt>
      <trkpt lat="47.26678" lon="-1.54456">
        <ele>27.92</ele>
        <time>2025-02-06T09:46:22Z</time>
      </trkpt>
      <trkpt lat="47.26701" lon="-1.5446">
        <ele>28</ele>
        <time>2025-02-06T09:46:38Z</time>
      </trkpt>
      <trkpt lat="47.26718" lon="-1.54464">
        <ele>28</ele>
        <time>2025-02-06T09:46:50Z</time>
      </trkpt>
      <trkpt lat="47.26736" lon="-1.54472">
        <ele>28</ele>
        <time>2025-02-06T09:47:02Z</time>
      </trkpt>
      <trkpt lat="47.26751" lon="-1.54492">
        <ele>28</ele>
        <time>2025-02-06T09:47:18Z</time>
      </trkpt>
      <trkpt lat="47.26772" lon="-1.54505">
        <ele>28.97</ele>
        <time>2025-02-06T09:47:34Z</time>
      </trkpt>
      <trkpt lat="47.26788" lon="-1.54517">
        <ele>29</ele>
        <time>2025-02-06T09:47:46Z</time>
      </trkpt>
      <trkpt lat="47.26806" lon="-1.54535">
        <ele>29</ele>
        <time>2025-02-06T09:48:02Z</time>
      </trkpt>
      <trkpt lat="47.26825" lon="-1.54555">
        <ele>29</ele>
        <time>2025-02-06T09:48:18Z</time>
      </trkpt>
      <trkpt lat="47.26847" lon="-1.54562">
        <ele>31.92</ele>
        <time>2025-02-06T09:48:34Z</time>
      </trkpt>
      <trkpt lat="47.26869" lon="-1.54557">
        <ele>32</ele>
        <time>2025-02-06T09:48:50Z</time>
      </trkpt>
      <trkpt lat="47.26887" lon="-1.5454">
        <ele>32</ele>
        <time>2025-02-06T09:49:06Z</time>
      </trkpt>
      <trkpt lat="47.26899" lon="-1.54515">
        <ele>32</ele>
        <time>2025-02-06T09:49:22Z</time>
      </trkpt>
      <trkpt lat="47.26904" lon="-1.54483">
        <ele>28.11</ele>
        <time>2025-02-06T09:49:38Z</time>
      </trkpt>
    </trkseg>
  </trk>
</gpx>